Time,TemperatureF,DewpointF,PressureIn,WindDirection,WindDirectionDegrees,WindSpeedMPH,WindSpeedGustMPH,Humidity,HourlyPrecipIn,Conditions,Clouds,dailyrainin,SoftwareType,DateUTC
2013-07-19 09:06:00,81.1,73.1,30.06,ESE,115,0.0,0.0,77,-99.99,,,-99.99,VWS V14.01,2013-07-19 13:06:00,
2013-07-19 09:07:00,81.3,73.2,30.06,ESE,115,0.0,0.0,76,-99.99,,,-99.99,VWS V14.01,2013-07-19 13:07:00,
2013-07-19 09:08:00,81.6,73.4,30.06,ESE,115,0.0,0.0,76,-99.99,,,-99.99,VWS V14.01,2013-07-19 13:08:00,
2013-07-19 09:09:00,81.8,73.3,30.06,ESE,115,0.0,0.0,76,-99.99,,,-99.99,VWS V14.01,2013-07-19 13:09:00,
2013-07-19 09:10:00,82.0,73.3,30.07,ESE,115,0.0,0.0,75,-99.99,,,-99.99,VWS V14.01,2013-07-19 13:10:00,
2013-07-19 09:11:00,82.3,72.9,30.07,ESE,115,0.0,0.0,73,-99.99,,,-99.99,VWS V14.01,2013-07-19 13:11:00,
2013-07-19 09:12:00,82.4,72.9,30.07,ESE,115,0.0,0.0,73,-99.99,,,-99.99,VWS V14.01,2013-07-19 13:12:00,
2013-07-19 09:13:00,82.5,72.8,30.07,East,98,3.2,3.5,72,-99.99,,,-99.99,VWS V14.01,2013-07-19 13:13:00,
2013-07-19 09:14:00,82.9,73.3,30.07,East,98,0.0,3.2,73,-99.99,,,-99.99,VWS V14.01,2013-07-19 13:14:00,
2013-07-19 09:15:00,83.1,73.3,30.07,East,98,0.0,0.0,72,-99.99,,,-99.99,VWS V14.01,2013-07-19 13:15:00,
2013-07-19 09:16:00,83.4,73.2,30.07,East,98,0.0,0.0,71,-99.99,,,-99.99,VWS V14.01,2013-07-19 13:16:00,
2013-07-19 09:17:00,83.6,73.2,30.07,East,98,0.0,0.0,71,-99.99,,,-99.99,VWS V14.01,2013-07-19 13:17:00,
2013-07-19 09:18:00,83.7,73.1,30.07,East,98,0.0,0.0,70,-99.99,,,-99.99,VWS V14.01,2013-07-19 13:18:00,
2013-07-19 09:19:00,83.9,73.0,30.07,East,98,0.0,0.0,70,-99.99,,,-99.99,VWS V14.01,2013-07-19 13:19:00,
2013-07-19 09:20:00,84.0,72.9,30.07,East,98,0.0,0.0,69,-99.99,,,-99.99,VWS V14.01,2013-07-19 13:20:00,
2013-07-19 09:21:00,84.0,72.7,30.07,East,98,0.0,0.0,69,-99.99,,,-99.99,VWS V14.01,2013-07-19 13:21:00,
2013-07-19 09:22:00,84.0,72.7,30.07,East,98,0.0,0.0,69,-99.99,,,-99.99,VWS V14.01,2013-07-19 13:22:00,
2013-07-19 09:23:00,84.0,72.8,30.07,East,98,0.0,0.0,69,-99.99,,,-99.99,VWS V14.01,2013-07-19 13:23:00,
2013-07-19 09:24:00,84.0,73.0,30.07,East,98,0.0,0.0,70,-99.99,,,-99.99,VWS V14.01,2013-07-19 13:24:00,
2013-07-19 09:25:00,84.0,73.2,30.07,East,98,0.0,0.0,70,-99.99,,,-99.99,VWS V14.01,2013-07-19 13:25:00,
2013-07-19 09:26:00,84.1,73.4,30.07,East,98,0.0,0.0,70,-99.99,,,-99.99,VWS V14.01,2013-07-19 13:26:00,
2013-07-19 09:27:00,84.2,73.5,30.07,East,98,0.0,0.0,70,-99.99,,,-99.99,VWS V14.01,2013-07-19 13:27:00,
2013-07-19 09:28:00,84.2,73.3,30.07,East,98,0.0,0.0,70,-99.99,,,-99.99,VWS V14.01,2013-07-19 13:28:00,
2013-07-19 09:29:00,84.3,73.3,30.07,East,98,0.0,0.0,70,-99.99,,,-99.99,VWS V14.01,2013-07-19 13:29:00,
2013-07-19 09:30:00,84.4,73.3,30.07,East,98,0.0,0.0,70,-99.99,,,-99.99,VWS V14.01,2013-07-19 13:30:00,
2013-07-19 09:31:00,84.6,73.6,30.07,East,98,0.0,0.0,70,-99.99,,,-99.99,VWS V14.01,2013-07-19 13:31:00,
2013-07-19 09:32:00,84.6,73.5,30.07,East,98,0.0,0.0,69,-99.99,,,-99.99,VWS V14.01,2013-07-19 13:32:00,
2013-07-19 09:33:00,84.8,73.3,30.07,East,82,0.0,2.7,69,-99.99,,,-99.99,VWS V14.01,2013-07-19 13:33:00,
2013-07-19 09:34:00,84.9,73.3,30.07,East,82,0.0,0.0,68,-99.99,,,-99.99,VWS V14.01,2013-07-19 13:34:00,
2013-07-19 09:35:00,85.0,73.3,30.07,East,82,0.0,0.0,68,-99.99,,,-99.99,VWS V14.01,2013-07-19 13:35:00,
2013-07-19 09:36:00,85.1,73.3,30.08,East,82,0.0,0.0,68,-99.99,,,-99.99,VWS V14.01,2013-07-19 13:36:00,
2013-07-19 09:37:00,85.4,73.7,30.08,East,82,0.0,0.0,68,-99.99,,,-99.99,VWS V14.01,2013-07-19 13:37:00,
2013-07-19 09:38:00,85.3,72.9,30.08,East,82,0.0,0.0,67,-99.99,,,-99.99,VWS V14.01,2013-07-19 13:38:00,
2013-07-19 09:39:00,85.4,72.6,30.07,WNW,298,3.1,7.4,66,-99.99,,,-99.99,VWS V14.01,2013-07-19 13:39:00,
2013-07-19 09:40:00,85.5,72.8,30.07,West,263,0.0,5.6,66,-99.99,,,-99.99,VWS V14.01,2013-07-19 13:40:00,
2013-07-19 09:41:00,85.7,72.8,30.07,West,263,0.0,0.0,66,-99.99,,,-99.99,VWS V14.01,2013-07-19 13:41:00,
2013-07-19 09:42:00,85.8,72.8,30.07,WNW,295,5.9,5.9,65,-99.99,,,-99.99,VWS V14.01,2013-07-19 13:42:00,
2013-07-19 09:43:00,85.8,72.7,30.08,NNW,329,10.4,10.4,65,-99.99,,,-99.99,VWS V14.01,2013-07-19 13:43:00,
2013-07-19 09:44:00,85.7,72.2,30.08,NW,316,6.1,12.3,64,-99.99,,,-99.99,VWS V14.01,2013-07-19 13:44:00,
2013-07-19 09:45:00,85.7,72.4,30.07,North,359,6.2,8.2,64,-99.99,,,-99.99,VWS V14.01,2013-07-19 13:45:00,
2013-07-19 09:46:00,85.7,72.5,30.08,West,267,4.3,6.9,65,-99.99,,,-99.99,VWS V14.01,2013-07-19 13:46:00,
2013-07-19 09:47:00,85.7,72.5,30.08,South,188,0.0,6.5,65,-99.99,,,-99.99,VWS V14.01,2013-07-19 13:47:00,
2013-07-19 09:48:00,85.6,72.4,30.07,NNW,329,5.7,10.7,65,-99.99,,,-99.99,VWS V14.01,2013-07-19 13:48:00,
2013-07-19 09:49:00,85.5,72.2,30.07,NNW,336,7.0,9.4,64,-99.99,,,-99.99,VWS V14.01,2013-07-19 13:49:00,
2013-07-19 09:50:00,85.6,72.4,30.07,NW,307,3.4,9.6,65,-99.99,,,-99.99,VWS V14.01,2013-07-19 13:50:00,
2013-07-19 09:51:00,85.6,72.5,30.07,NW,307,0.0,3.4,65,-99.99,,,-99.99,VWS V14.01,2013-07-19 13:51:00,
2013-07-19 09:52:00,85.6,72.7,30.07,NW,307,0.0,0.0,65,-99.99,,,-99.99,VWS V14.01,2013-07-19 13:52:00,
2013-07-19 09:53:00,85.8,72.8,30.07,SSW,207,3.0,5.7,65,-99.99,,,-99.99,VWS V14.01,2013-07-19 13:53:00,
2013-07-19 09:54:00,86.0,73.1,30.07,SSW,207,0.0,3.0,65,-99.99,,,-99.99,VWS V14.01,2013-07-19 13:54:00,
2013-07-19 09:55:00,86.0,72.6,30.07,SSW,194,0.0,4.5,64,-99.99,,,-99.99,VWS V14.01,2013-07-19 13:55:00,
2013-07-19 09:56:00,86.0,72.7,30.07,SSW,194,0.0,4.5,65,-99.99,,,-99.99,VWS V14.01,2013-07-19 13:56:00,
2013-07-19 09:57:00,86.0,72.5,30.07,NW,309,0.0,6.6,64,-99.99,,,-99.99,VWS V14.01,2013-07-19 13:57:00,
2013-07-19 09:58:00,86.1,72.5,30.07,NW,309,0.0,0.0,64,-99.99,,,-99.99,VWS V14.01,2013-07-19 13:58:00,
2013-07-19 09:59:00,86.0,72.6,30.07,NW,309,0.0,0.0,64,-99.99,,,-99.99,VWS V14.01,2013-07-19 13:59:00,
2013-07-19 10:00:00,85.9,71.9,30.07,NW,319,9.6,9.8,63,-99.99,,,-99.99,VWS V14.01,2013-07-19 14:00:00,
2013-07-19 10:01:00,86.0,72.0,30.07,NW,323,9.8,9.8,63,-99.99,,,-99.99,VWS V14.01,2013-07-19 14:01:00,
2013-07-19 10:02:00,86.0,72.3,30.07,West,276,2.5,9.8,64,-99.99,,,-99.99,VWS V14.01,2013-07-19 14:02:00,
2013-07-19 10:03:00,85.8,72.0,30.07,NW,318,0.0,5.1,64,-99.99,,,-99.99,VWS V14.01,2013-07-19 14:03:00,
2013-07-19 10:04:00,85.9,72.4,30.07,NW,318,0.0,0.0,64,-99.99,,,-99.99,VWS V14.01,2013-07-19 14:04:00,
2013-07-19 10:05:00,85.8,72.4,30.07,WSW,238,0.0,4.6,64,-99.99,,,-99.99,VWS V14.01,2013-07-19 14:05:00,
2013-07-19 10:06:00,85.8,72.4,30.07,WSW,238,0.0,4.6,64,-99.99,,,-99.99,VWS V14.01,2013-07-19 14:06:00,
2013-07-19 10:07:00,86.0,72.7,30.08,NW,311,5.0,7.0,65,-99.99,,,-99.99,VWS V14.01,2013-07-19 14:07:00,
2013-07-19 10:08:00,85.8,72.3,30.08,SSW,194,3.2,7.1,64,-99.99,,,-99.99,VWS V14.01,2013-07-19 14:08:00,
2013-07-19 10:09:00,85.9,72.3,30.08,SSW,194,0.0,3.2,64,-99.99,,,-99.99,VWS V14.01,2013-07-19 14:09:00,
2013-07-19 10:10:00,86.0,72.5,30.08,SSW,194,0.0,0.0,64,-99.99,,,-99.99,VWS V14.01,2013-07-19 14:10:00,
2013-07-19 10:11:00,86.0,72.5,30.08,SSW,194,0.0,0.0,64,-99.99,,,-99.99,VWS V14.01,2013-07-19 14:11:00,
2013-07-19 10:12:00,86.0,72.6,30.08,SSW,194,0.0,1.2,64,-99.99,,,-99.99,VWS V14.01,2013-07-19 14:12:00,
2013-07-19 10:13:00,86.1,72.7,30.08,SSW,194,0.0,0.0,64,-99.99,,,-99.99,VWS V14.01,2013-07-19 14:13:00,
2013-07-19 10:14:00,86.2,72.8,30.08,SE,136,2.6,4.9,64,-99.99,,,-99.99,VWS V14.01,2013-07-19 14:14:00,
2013-07-19 10:15:00,86.3,72.6,30.08,WNW,291,0.0,7.1,64,-99.99,,,-99.99,VWS V14.01,2013-07-19 14:15:00,
2013-07-19 10:16:00,86.3,72.6,30.08,WNW,291,0.0,7.1,64,-99.99,,,-99.99,VWS V14.01,2013-07-19 14:16:00,
2013-07-19 10:17:00,86.4,72.7,30.08,NW,326,0.0,8.3,64,-99.99,,,-99.99,VWS V14.01,2013-07-19 14:17:00,
2013-07-19 10:18:00,86.4,72.6,30.07,NW,326,0.0,0.0,64,-99.99,,,-99.99,VWS V14.01,2013-07-19 14:18:00,
2013-07-19 10:19:00,86.5,72.7,30.07,NW,326,0.0,0.0,64,-99.99,,,-99.99,VWS V14.01,2013-07-19 14:19:00,
2013-07-19 10:20:00,86.8,72.8,30.07,SE,141,6.3,6.5,63,-99.99,,,-99.99,VWS V14.01,2013-07-19 14:20:00,
2013-07-19 10:21:00,86.7,72.8,30.07,SSW,194,4.7,6.5,63,-99.99,,,-99.99,VWS V14.01,2013-07-19 14:21:00,
2013-07-19 10:22:00,86.9,72.8,30.07,WNW,291,4.8,5.5,63,-99.99,,,-99.99,VWS V14.01,2013-07-19 14:22:00,
2013-07-19 10:23:00,87.0,73.0,30.07,NW,322,0.0,4.8,63,-99.99,,,-99.99,VWS V14.01,2013-07-19 14:23:00,
2013-07-19 10:24:00,87.1,72.9,30.08,NW,322,0.0,0.0,63,-99.99,,,-99.99,VWS V14.01,2013-07-19 14:24:00,
2013-07-19 10:25:00,87.3,73.1,30.08,NW,322,0.0,0.0,63,-99.99,,,-99.99,VWS V14.01,2013-07-19 14:25:00,
2013-07-19 10:26:00,87.3,73.1,30.08,NW,322,0.0,0.0,63,-99.99,,,-99.99,VWS V14.01,2013-07-19 14:26:00,
2013-07-19 10:27:00,87.4,72.9,30.08,NW,322,0.0,0.0,62,-99.99,,,-99.99,VWS V14.01,2013-07-19 14:27:00,
2013-07-19 10:28:00,87.4,72.9,30.08,NW,322,0.0,0.0,62,-99.99,,,-99.99,VWS V14.01,2013-07-19 14:28:00,
2013-07-19 10:29:00,87.4,72.7,30.08,NW,314,7.8,9.6,62,-99.99,,,-99.99,VWS V14.01,2013-07-19 14:29:00,
2013-07-19 10:30:00,87.3,72.4,30.08,NNW,336,5.5,6.6,61,-99.99,,,-99.99,VWS V14.01,2013-07-19 14:30:00,
2013-07-19 10:31:00,87.3,72.4,30.08,WNW,285,4.6,6.6,61,-99.99,,,-99.99,VWS V14.01,2013-07-19 14:31:00,
2013-07-19 10:32:00,87.3,72.7,30.08,WSW,250,5.5,9.8,62,-99.99,,,-99.99,VWS V14.01,2013-07-19 14:32:00,
2013-07-19 10:33:00,87.2,72.5,30.08,SW,224,0.0,7.9,62,-99.99,,,-99.99,VWS V14.01,2013-07-19 14:33:00,
2013-07-19 10:34:00,87.2,72.6,30.08,SW,224,0.0,0.0,62,-99.99,,,-99.99,VWS V14.01,2013-07-19 14:34:00,
2013-07-19 10:35:00,87.1,72.7,30.08,WSW,246,4.9,4.9,62,-99.99,,,-99.99,VWS V14.01,2013-07-19 14:35:00,
2013-07-19 10:36:00,87.1,72.7,30.08,WNW,291,6.0,6.2,62,-99.99,,,-99.99,VWS V14.01,2013-07-19 14:36:00,
2013-07-19 10:37:00,87.1,72.8,30.08,WNW,302,4.3,6.0,62,-99.99,,,-99.99,VWS V14.01,2013-07-19 14:37:00,
2013-07-19 10:39:00,86.8,72.2,30.08,NW,307,3.5,3.5,62,-99.99,,,-99.99,VWS V14.01,2013-07-19 14:39:00,
2013-07-19 10:40:00,86.9,72.3,30.08,NW,322,0.0,7.4,62,-99.99,,,-99.99,VWS V14.01,2013-07-19 14:40:00,
2013-07-19 10:41:00,86.9,72.3,30.08,WNW,285,3.4,7.4,62,-99.99,,,-99.99,VWS V14.01,2013-07-19 14:41:00,
2013-07-19 10:42:00,86.8,72.4,30.08,NW,323,0.0,5.7,62,-99.99,,,-99.99,VWS V14.01,2013-07-19 14:42:00,
2013-07-19 10:43:00,86.7,72.4,30.08,NW,323,0.0,0.0,62,-99.99,,,-99.99,VWS V14.01,2013-07-19 14:43:00,
2013-07-19 10:44:00,86.7,72.7,30.07,NW,312,8.6,11.3,63,-99.99,,,-99.99,VWS V14.01,2013-07-19 14:44:00,
2013-07-19 10:45:00,86.8,72.9,30.08,WNW,295,0.0,5.2,63,-99.99,,,-99.99,VWS V14.01,2013-07-19 14:45:00,
2013-07-19 10:46:00,86.8,72.9,30.08,WNW,295,0.0,5.2,63,-99.99,,,-99.99,VWS V14.01,2013-07-19 14:46:00,
2013-07-19 10:47:00,86.8,72.9,30.08,WSW,250,3.1,10.0,64,-99.99,,,-99.99,VWS V14.01,2013-07-19 14:47:00,
2013-07-19 10:48:00,86.8,72.6,30.08,WSW,248,0.0,3.4,63,-99.99,,,-99.99,VWS V14.01,2013-07-19 14:48:00,
2013-07-19 10:49:00,86.9,72.5,30.08,WSW,250,0.0,3.0,62,-99.99,,,-99.99,VWS V14.01,2013-07-19 14:49:00,
2013-07-19 10:50:00,86.9,72.3,30.08,WSW,250,0.0,2.0,62,-99.99,,,-99.99,VWS V14.01,2013-07-19 14:50:00,
2013-07-19 10:51:00,86.9,72.4,30.08,WSW,250,1.8,2.0,62,-99.99,,,-99.99,VWS V14.01,2013-07-19 14:51:00,
2013-07-19 10:52:00,87.1,72.6,30.08,SSW,211,2.7,5.7,62,-99.99,,,-99.99,VWS V14.01,2013-07-19 14:52:00,
2013-07-19 10:53:00,86.9,71.8,30.08,SW,215,0.0,7.0,61,-99.99,,,-99.99,VWS V14.01,2013-07-19 14:53:00,
2013-07-19 10:54:00,86.9,71.7,30.08,WNW,291,3.3,8.8,61,-99.99,,,-99.99,VWS V14.01,2013-07-19 14:54:00,
2013-07-19 10:55:00,87.0,71.6,30.08,SSE,155,0.0,2.5,60,-99.99,,,-99.99,VWS V14.01,2013-07-19 14:55:00,
2013-07-19 10:56:00,87.0,71.6,30.08,SSE,155,0.0,2.5,60,-99.99,,,-99.99,VWS V14.01,2013-07-19 14:56:00,
2013-07-19 10:57:00,87.1,71.9,30.08,WSW,239,5.2,6.5,61,-99.99,,,-99.99,VWS V14.01,2013-07-19 14:57:00,
2013-07-19 10:58:00,87.2,72.0,30.08,SSW,195,0.0,5.2,61,-99.99,,,-99.99,VWS V14.01,2013-07-19 14:58:00,
2013-07-19 10:59:00,87.2,71.8,30.08,NNW,342,3.0,8.1,60,-99.99,,,-99.99,VWS V14.01,2013-07-19 14:59:00,
2013-07-19 11:00:00,87.3,72.1,30.08,WNW,302,0.0,4.5,61,-99.99,,,-99.99,VWS V14.01,2013-07-19 15:00:00,
2013-07-19 11:01:00,87.3,72.1,30.08,South,191,4.6,5.2,61,-99.99,,,-99.99,VWS V14.01,2013-07-19 15:01:00,
2013-07-19 11:02:00,87.3,71.8,30.08,WNW,297,5.5,9.2,60,-99.99,,,-99.99,VWS V14.01,2013-07-19 15:02:00,
2013-07-19 11:03:00,87.2,71.0,30.08,NW,305,5.5,11.1,59,-99.99,,,-99.99,VWS V14.01,2013-07-19 15:03:00,
2013-07-19 11:04:00,87.3,71.3,30.08,SSW,211,0.0,5.5,59,-99.99,,,-99.99,VWS V14.01,2013-07-19 15:04:00,
2013-07-19 11:05:00,87.2,71.3,30.08,SSW,202,4.2,9.5,59,-99.99,,,-99.99,VWS V14.01,2013-07-19 15:05:00,
2013-07-19 11:06:00,87.4,71.6,30.08,WNW,285,4.6,9.5,60,-99.99,,,-99.99,VWS V14.01,2013-07-19 15:06:00,
2013-07-19 11:07:00,87.3,71.3,30.08,WNW,294,0.0,6.3,59,-99.99,,,-99.99,VWS V14.01,2013-07-19 15:07:00,
2013-07-19 11:08:00,87.4,71.3,30.08,SW,214,3.4,9.3,59,-99.99,,,-99.99,VWS V14.01,2013-07-19 15:08:00,
2013-07-19 11:09:00,87.4,71.4,30.08,SSW,198,0.0,3.4,59,-99.99,,,-99.99,VWS V14.01,2013-07-19 15:09:00,
2013-07-19 11:10:00,87.4,71.6,30.08,NW,325,5.0,8.5,60,-99.99,,,-99.99,VWS V14.01,2013-07-19 15:10:00,
2013-07-19 11:11:00,87.4,71.6,30.08,NNW,343,5.2,8.5,60,-99.99,,,-99.99,VWS V14.01,2013-07-19 15:11:00,
2013-07-19 11:12:00,87.3,70.9,30.08,NW,321,0.0,13.5,58,-99.99,,,-99.99,VWS V14.01,2013-07-19 15:12:00,
2013-07-19 11:13:00,87.4,71.0,30.08,NNW,329,7.3,8.5,58,-99.99,,,-99.99,VWS V14.01,2013-07-19 15:13:00,
2013-07-19 11:14:00,87.2,71.2,30.07,North,357,0.0,8.3,59,-99.99,,,-99.99,VWS V14.01,2013-07-19 15:14:00,
2013-07-19 11:15:00,87.3,71.5,30.07,WNW,288,0.0,5.5,60,-99.99,,,-99.99,VWS V14.01,2013-07-19 15:15:00,
2013-07-19 11:16:00,87.3,71.4,30.07,West,263,5.2,6.0,59,-99.99,,,-99.99,VWS V14.01,2013-07-19 15:16:00,
2013-07-19 11:17:00,87.2,71.3,30.07,WNW,285,5.6,6.0,59,-99.99,,,-99.99,VWS V14.01,2013-07-19 15:17:00,
2013-07-19 11:18:00,87.2,71.2,30.07,North,356,0.0,6.0,59,-99.99,,,-99.99,VWS V14.01,2013-07-19 15:18:00,
2013-07-19 11:19:00,87.4,71.5,30.07,North,356,0.0,0.0,59,-99.99,,,-99.99,VWS V14.01,2013-07-19 15:19:00,
2013-07-19 11:20:00,87.3,71.6,30.07,SW,235,3.3,5.9,60,-99.99,,,-99.99,VWS V14.01,2013-07-19 15:20:00,
2013-07-19 11:21:00,87.4,71.2,30.07,NNW,345,7.6,7.8,59,-99.99,,,-99.99,VWS V14.01,2013-07-19 15:21:00,
2013-07-19 11:22:00,87.4,71.0,30.07,NW,305,6.0,11.6,58,-99.99,,,-99.99,VWS V14.01,2013-07-19 15:22:00,
2013-07-19 11:23:00,87.4,71.2,30.07,SE,141,3.5,6.5,59,-99.99,,,-99.99,VWS V14.01,2013-07-19 15:23:00,
2013-07-19 11:24:00,87.5,71.2,30.07,SW,233,0.0,6.6,59,-99.99,,,-99.99,VWS V14.01,2013-07-19 15:24:00,
2013-07-19 11:25:00,87.5,71.2,30.07,West,274,6.2,7.0,59,-99.99,,,-99.99,VWS V14.01,2013-07-19 15:25:00,
2013-07-19 11:26:00,87.6,71.5,30.07,WNW,297,0.0,7.0,59,-99.99,,,-99.99,VWS V14.01,2013-07-19 15:26:00,
2013-07-19 11:27:00,87.6,71.4,30.06,WNW,294,0.0,5.1,59,-99.99,,,-99.99,VWS V14.01,2013-07-19 15:27:00,
2013-07-19 11:28:00,87.7,71.3,30.06,WNW,294,4.5,4.5,58,-99.99,,,-99.99,VWS V14.01,2013-07-19 15:28:00,
2013-07-19 11:29:00,87.8,71.4,30.06,NW,316,0.0,9.5,58,-99.99,,,-99.99,VWS V14.01,2013-07-19 15:29:00,
2013-07-19 11:30:00,87.9,71.6,30.06,SSE,158,2.9,5.0,59,-99.99,,,-99.99,VWS V14.01,2013-07-19 15:30:00,
2013-07-19 11:31:00,87.9,71.6,30.06,SSE,158,0.0,5.0,59,-99.99,,,-99.99,VWS V14.01,2013-07-19 15:31:00,
2013-07-19 11:32:00,88.1,71.8,30.06,NNW,328,5.0,7.1,59,-99.99,,,-99.99,VWS V14.01,2013-07-19 15:32:00,
2013-07-19 11:33:00,88.2,71.6,30.06,WNW,283,6.6,7.0,58,-99.99,,,-99.99,VWS V14.01,2013-07-19 15:33:00,
2013-07-19 11:34:00,88.1,71.2,30.06,NW,312,0.0,6.6,57,-99.99,,,-99.99,VWS V14.01,2013-07-19 15:34:00,
2013-07-19 11:35:00,88.4,71.2,30.06,NW,312,0.0,0.0,57,-99.99,,,-99.99,VWS V14.01,2013-07-19 15:35:00,
2013-07-19 11:36:00,88.4,71.3,30.06,NW,312,0.0,0.0,57,-99.99,,,-99.99,VWS V14.01,2013-07-19 15:36:00,
2013-07-19 11:37:00,88.5,71.2,30.06,NW,312,0.0,0.0,57,-99.99,,,-99.99,VWS V14.01,2013-07-19 15:37:00,
2013-07-19 11:38:00,88.4,71.1,30.06,NW,312,0.0,0.0,57,-99.99,,,-99.99,VWS V14.01,2013-07-19 15:38:00,
2013-07-19 11:39:00,88.5,71.6,30.06,NNW,335,7.8,8.0,58,-99.99,,,-99.99,VWS V14.01,2013-07-19 15:39:00,
2013-07-19 11:40:00,88.5,71.2,30.06,SW,229,5.0,8.9,57,-99.99,,,-99.99,VWS V14.01,2013-07-19 15:40:00,
2013-07-19 11:41:00,88.5,71.1,30.06,SW,229,0.0,8.9,57,-99.99,,,-99.99,VWS V14.01,2013-07-19 15:41:00,
2013-07-19 11:42:00,88.6,71.3,30.06,West,269,0.0,4.7,57,-99.99,,,-99.99,VWS V14.01,2013-07-19 15:42:00,
2013-07-19 11:43:00,88.6,71.4,30.06,West,269,0.0,0.0,57,-99.99,,,-99.99,VWS V14.01,2013-07-19 15:43:00,
2013-07-19 11:44:00,88.8,71.7,30.06,NW,315,5.5,9.3,57,-99.99,,,-99.99,VWS V14.01,2013-07-19 15:44:00,
2013-07-19 11:45:00,88.9,70.9,30.06,NW,319,0.0,6.8,56,-99.99,,,-99.99,VWS V14.01,2013-07-19 15:45:00,
2013-07-19 11:46:00,88.9,70.9,30.06,NW,319,3.0,6.8,55,-99.99,,,-99.99,VWS V14.01,2013-07-19 15:46:00,
2013-07-19 11:47:00,88.9,71.2,30.05,WNW,298,6.0,8.3,56,-99.99,,,-99.99,VWS V14.01,2013-07-19 15:47:00,
2013-07-19 11:48:00,88.9,71.4,30.05,WSW,239,5.5,6.9,56,-99.99,,,-99.99,VWS V14.01,2013-07-19 15:48:00,
2013-07-19 11:49:00,88.8,71.5,30.05,WNW,292,6.1,6.7,57,-99.99,,,-99.99,VWS V14.01,2013-07-19 15:49:00,
2013-07-19 11:50:00,88.9,70.9,30.05,WNW,284,0.0,9.2,56,-99.99,,,-99.99,VWS V14.01,2013-07-19 15:50:00,
2013-07-19 11:51:00,88.9,71.1,30.05,WNW,298,9.1,9.2,56,-99.99,,,-99.99,VWS V14.01,2013-07-19 15:51:00,
2013-07-19 11:52:00,88.8,70.9,30.05,NW,312,7.6,9.4,56,-99.99,,,-99.99,VWS V14.01,2013-07-19 15:52:00,
2013-07-19 11:53:00,88.8,71.2,30.05,NNE,15,0.0,7.8,56,-99.99,,,-99.99,VWS V14.01,2013-07-19 15:53:00,
2013-07-19 11:54:00,88.8,71.2,30.05,West,262,3.4,4.3,56,-99.99,,,-99.99,VWS V14.01,2013-07-19 15:54:00,
2013-07-19 11:55:00,88.7,71.1,30.05,NNW,339,4.5,6.8,56,-99.99,,,-99.99,VWS V14.01,2013-07-19 15:55:00,
2013-07-19 11:56:00,88.7,71.1,30.05,NNW,339,0.0,6.8,56,-99.99,,,-99.99,VWS V14.01,2013-07-19 15:56:00,
2013-07-19 11:57:00,88.7,70.9,30.05,NNW,339,0.0,0.0,56,-99.99,,,-99.99,VWS V14.01,2013-07-19 15:57:00,
2013-07-19 11:58:00,88.8,71.4,30.05,NNW,339,1.4,2.7,57,-99.99,,,-99.99,VWS V14.01,2013-07-19 15:58:00,
2013-07-19 11:59:00,88.7,71.4,30.05,North,359,3.2,8.6,57,-99.99,,,-99.99,VWS V14.01,2013-07-19 15:59:00,
2013-07-19 12:00:00,88.7,71.2,30.05,NW,319,6.4,10.4,56,-99.99,,,-99.99,VWS V14.01,2013-07-19 16:00:00,
2013-07-19 12:01:00,88.8,71.2,30.05,NW,323,8.5,10.4,56,-99.99,,,-99.99,VWS V14.01,2013-07-19 16:01:00,
2013-07-19 12:02:00,88.8,70.9,30.05,WSW,257,3.0,8.9,56,-99.99,,,-99.99,VWS V14.01,2013-07-19 16:02:00,
2013-07-19 12:03:00,88.7,71.1,30.05,NNW,329,0.0,9.3,56,-99.99,,,-99.99,VWS V14.01,2013-07-19 16:03:00,
2013-07-19 12:04:00,88.8,71.6,30.05,NNW,336,0.0,3.4,57,-99.99,,,-99.99,VWS V14.01,2013-07-19 16:04:00,
2013-07-19 12:05:00,89.0,72.1,30.05,NW,304,3.1,7.8,58,-99.99,,,-99.99,VWS V14.01,2013-07-19 16:05:00,
2013-07-19 12:06:00,89.0,72.0,30.05,NW,326,9.3,9.3,57,-99.99,,,-99.99,VWS V14.01,2013-07-19 16:06:00,
2013-07-19 12:07:00,88.8,71.5,30.05,WSW,245,5.8,11.7,57,-99.99,,,-99.99,VWS V14.01,2013-07-19 16:07:00,
2013-07-19 12:08:00,88.9,71.0,30.05,WNW,291,4.2,15.3,56,-99.99,,,-99.99,VWS V14.01,2013-07-19 16:08:00,
2013-07-19 12:09:00,88.7,70.9,30.05,SW,225,0.0,6.0,56,-99.99,,,-99.99,VWS V14.01,2013-07-19 16:09:00,
2013-07-19 12:10:00,88.6,70.8,30.04,NW,316,8.1,13.6,56,-99.99,,,-99.99,VWS V14.01,2013-07-19 16:10:00,
2013-07-19 12:11:00,88.6,70.6,30.04,North,10,9.4,13.6,55,-99.99,,,-99.99,VWS V14.01,2013-07-19 16:11:00,
2013-07-19 12:12:00,88.5,70.4,30.05,WNW,300,4.6,11.1,55,-99.99,,,-99.99,VWS V14.01,2013-07-19 16:12:00,
2013-07-19 12:13:00,88.4,70.3,30.05,North,349,3.3,8.6,55,-99.99,,,-99.99,VWS V14.01,2013-07-19 16:13:00,
2013-07-19 12:14:00,88.4,70.6,30.05,NW,307,2.9,8.1,56,-99.99,,,-99.99,VWS V14.01,2013-07-19 16:14:00,
2013-07-19 12:15:00,88.4,70.7,30.04,NW,325,4.8,5.7,56,-99.99,,,-99.99,VWS V14.01,2013-07-19 16:15:00,
2013-07-19 12:16:00,88.4,70.7,30.04,North,359,0.0,5.7,56,-99.99,,,-99.99,VWS V14.01,2013-07-19 16:16:00,
2013-07-19 12:17:00,88.3,70.6,30.04,WNW,287,7.2,10.7,56,-99.99,,,-99.99,VWS V14.01,2013-07-19 16:17:00,
2013-07-19 12:18:00,88.3,70.8,30.04,WNW,298,4.2,7.2,56,-99.99,,,-99.99,VWS V14.01,2013-07-19 16:18:00,
2013-07-19 12:19:00,88.4,71.2,30.04,NNW,328,0.0,7.3,57,-99.99,,,-99.99,VWS V14.01,2013-07-19 16:19:00,
2013-07-19 12:20:00,88.2,70.8,30.04,West,273,0.0,6.6,56,-99.99,,,-99.99,VWS V14.01,2013-07-19 16:20:00,
2013-07-19 12:21:00,88.3,70.8,30.04,NNW,330,7.1,8.3,56,-99.99,,,-99.99,VWS V14.01,2013-07-19 16:21:00,
2013-07-19 12:22:00,88.3,70.9,30.04,NNW,328,9.7,9.7,56,-99.99,,,-99.99,VWS V14.01,2013-07-19 16:22:00,
2013-07-19 12:23:00,88.2,70.9,30.04,NNW,338,4.8,9.7,57,-99.99,,,-99.99,VWS V14.01,2013-07-19 16:23:00,
2013-07-19 12:24:00,88.3,70.6,30.04,WSW,255,0.0,5.0,56,-99.99,,,-99.99,VWS V14.01,2013-07-19 16:24:00,
2013-07-19 12:25:00,88.4,70.7,30.04,North,354,5.6,7.6,56,-99.99,,,-99.99,VWS V14.01,2013-07-19 16:25:00,
2013-07-19 12:26:00,88.4,70.8,30.04,NW,315,9.1,9.1,56,-99.99,,,-99.99,VWS V14.01,2013-07-19 16:26:00,
2013-07-19 12:27:00,88.4,70.5,30.04,WNW,285,0.0,9.9,56,-99.99,,,-99.99,VWS V14.01,2013-07-19 16:27:00,
2013-07-19 12:28:00,88.4,70.6,30.04,WNW,291,0.0,7.6,56,-99.99,,,-99.99,VWS V14.01,2013-07-19 16:28:00,
2013-07-19 12:29:00,88.4,70.6,30.04,NW,311,2.7,8.6,56,-99.99,,,-99.99,VWS V14.01,2013-07-19 16:29:00,
2013-07-19 12:30:00,88.3,70.5,30.04,NNE,21,3.2,7.5,56,-99.99,,,-99.99,VWS V14.01,2013-07-19 16:30:00,
2013-07-19 12:31:00,88.5,70.5,30.04,North,359,2.9,8.3,55,-99.99,,,-99.99,VWS V14.01,2013-07-19 16:31:00,
2013-07-19 12:32:00,88.5,70.4,30.04,NW,325,0.0,9.7,55,-99.99,,,-99.99,VWS V14.01,2013-07-19 16:32:00,
2013-07-19 12:33:00,88.5,70.4,30.04,NW,325,0.0,3.0,55,-99.99,,,-99.99,VWS V14.01,2013-07-19 16:33:00,
2013-07-19 12:34:00,88.5,70.4,30.04,West,264,0.0,5.5,55,-99.99,,,-99.99,VWS V14.01,2013-07-19 16:34:00,
2013-07-19 12:35:00,88.7,70.5,30.04,West,264,0.0,1.7,55,-99.99,,,-99.99,VWS V14.01,2013-07-19 16:35:00,
2013-07-19 12:36:00,88.7,70.7,30.04,West,264,0.0,1.7,55,-99.99,,,-99.99,VWS V14.01,2013-07-19 16:36:00,
2013-07-19 12:37:00,88.9,70.7,30.03,NNW,347,4.9,9.7,55,-99.99,,,-99.99,VWS V14.01,2013-07-19 16:37:00,
2013-07-19 12:38:00,88.9,70.8,30.04,NNW,347,0.0,4.9,55,-99.99,,,-99.99,VWS V14.01,2013-07-19 16:38:00,
2013-07-19 12:39:00,89.2,70.9,30.04,SSW,202,0.0,4.8,55,-99.99,,,-99.99,VWS V14.01,2013-07-19 16:39:00,
2013-07-19 12:40:00,89.4,71.0,30.03,SSW,202,0.0,0.0,55,-99.99,,,-99.99,VWS V14.01,2013-07-19 16:40:00,
2013-07-19 12:41:00,89.2,70.3,30.03,SSW,202,0.0,0.0,54,-99.99,,,-99.99,VWS V14.01,2013-07-19 16:41:00,
2013-07-19 12:42:00,89.4,70.8,30.03,SSW,202,0.0,4.3,54,-99.99,,,-99.99,VWS V14.01,2013-07-19 16:42:00,
2013-07-19 12:43:00,89.6,70.9,30.03,SSE,163,0.0,6.2,54,-99.99,,,-99.99,VWS V14.01,2013-07-19 16:43:00,
2013-07-19 12:44:00,89.5,70.7,30.03,NE,42,0.0,8.4,54,-99.99,,,-99.99,VWS V14.01,2013-07-19 16:44:00,
2013-07-19 12:45:00,89.6,70.9,30.03,West,269,0.0,2.7,54,-99.99,,,-99.99,VWS V14.01,2013-07-19 16:45:00,
2013-07-19 12:46:00,89.5,70.8,30.03,West,269,0.0,3.4,54,-99.99,,,-99.99,VWS V14.01,2013-07-19 16:46:00,
2013-07-19 12:47:00,89.6,70.8,30.03,NW,319,3.4,9.0,54,-99.99,,,-99.99,VWS V14.01,2013-07-19 16:47:00,
2013-07-19 12:48:00,89.7,70.9,30.03,West,281,0.0,4.7,54,-99.99,,,-99.99,VWS V14.01,2013-07-19 16:48:00,
2013-07-19 12:49:00,89.8,71.0,30.03,West,281,0.0,0.0,54,-99.99,,,-99.99,VWS V14.01,2013-07-19 16:49:00,
2013-07-19 12:50:00,90.0,71.3,30.03,SSW,212,1.9,1.9,54,-99.99,,,-99.99,VWS V14.01,2013-07-19 16:50:00,
2013-07-19 12:51:00,89.9,71.2,30.03,SSW,212,4.2,4.2,54,-99.99,,,-99.99,VWS V14.01,2013-07-19 16:51:00,
2013-07-19 12:52:00,90.0,71.5,30.03,South,187,0.0,6.6,55,-99.99,,,-99.99,VWS V14.01,2013-07-19 16:52:00,
2013-07-19 12:53:00,90.0,71.2,30.03,South,187,0.0,0.0,54,-99.99,,,-99.99,VWS V14.01,2013-07-19 16:53:00,
2013-07-19 12:54:00,90.2,71.4,30.03,NW,311,4.4,4.4,54,-99.99,,,-99.99,VWS V14.01,2013-07-19 16:54:00,
2013-07-19 12:55:00,90.2,71.3,30.03,North,359,2.7,6.0,54,-99.99,,,-99.99,VWS V14.01,2013-07-19 16:55:00,
2013-07-19 12:56:00,90.2,71.4,30.03,North,359,0.0,6.0,54,-99.99,,,-99.99,VWS V14.01,2013-07-19 16:56:00,
2013-07-19 12:57:00,90.2,71.4,30.03,NW,314,0.0,5.0,54,-99.99,,,-99.99,VWS V14.01,2013-07-19 16:57:00,
2013-07-19 12:58:00,90.3,71.4,30.03,NW,314,0.0,0.0,54,-99.99,,,-99.99,VWS V14.01,2013-07-19 16:58:00,
2013-07-19 12:59:00,90.2,71.8,30.03,NW,314,0.0,0.0,55,-99.99,,,-99.99,VWS V14.01,2013-07-19 16:59:00,
2013-07-19 13:00:00,90.3,71.8,30.03,NW,314,0.0,0.0,55,-99.99,,,-99.99,VWS V14.01,2013-07-19 17:00:00,
2013-07-19 13:01:00,90.3,71.8,30.03,NW,314,0.0,0.0,55,-99.99,,,-99.99,VWS V14.01,2013-07-19 17:01:00,
2013-07-19 13:02:00,90.4,72.1,30.03,NW,314,0.0,0.0,55,-99.99,,,-99.99,VWS V14.01,2013-07-19 17:02:00,
2013-07-19 13:03:00,90.5,71.9,30.03,WNW,288,6.5,7.6,54,-99.99,,,-99.99,VWS V14.01,2013-07-19 17:03:00,
2013-07-19 13:04:00,90.6,71.5,30.03,WNW,291,0.0,7.6,54,-99.99,,,-99.99,VWS V14.01,2013-07-19 17:04:00,
2013-07-19 13:05:00,90.5,71.5,30.03,West,262,8.6,8.6,54,-99.99,,,-99.99,VWS V14.01,2013-07-19 17:05:00,
2013-07-19 13:09:00,90.4,71.5,30.03,WNW,283,8.5,8.5,54,-99.99,,,-99.99,VWS V14.01,2013-07-19 17:09:00,
2013-07-19 13:10:00,90.2,70.8,30.03,West,264,3.5,6.4,53,-99.99,,,-99.99,VWS V14.01,2013-07-19 17:10:00,
2013-07-19 13:11:00,90.2,70.6,30.03,West,281,5.5,6.4,53,-99.99,,,-99.99,VWS V14.01,2013-07-19 17:11:00,
2013-07-19 13:12:00,90.1,70.6,30.03,North,0,4.5,5.9,53,-99.99,,,-99.99,VWS V14.01,2013-07-19 17:12:00,
2013-07-19 13:13:00,89.9,70.3,30.02,WSW,256,0.0,9.3,53,-99.99,,,-99.99,VWS V14.01,2013-07-19 17:13:00,
2013-07-19 13:14:00,89.9,70.7,30.02,SSE,150,3.4,7.3,53,-99.99,,,-99.99,VWS V14.01,2013-07-19 17:14:00,
2013-07-19 13:15:00,90.0,71.0,30.02,SSE,150,0.0,0.0,54,-99.99,,,-99.99,VWS V14.01,2013-07-19 17:15:00,
2013-07-19 13:16:00,90.1,71.2,30.02,SSE,150,0.0,0.0,54,-99.99,,,-99.99,VWS V14.01,2013-07-19 17:16:00,
2013-07-19 13:17:00,89.9,71.1,30.02,SSE,150,0.0,0.0,54,-99.99,,,-99.99,VWS V14.01,2013-07-19 17:17:00,
2013-07-19 13:18:00,90.2,71.5,30.02,SSW,200,0.0,7.8,54,-99.99,,,-99.99,VWS V14.01,2013-07-19 17:18:00,
2013-07-19 13:19:00,90.3,71.4,30.02,SSW,200,0.0,0.0,54,-99.99,,,-99.99,VWS V14.01,2013-07-19 17:19:00,
2013-07-19 13:20:00,90.4,71.5,30.02,SSW,200,0.0,0.0,54,-99.99,,,-99.99,VWS V14.01,2013-07-19 17:20:00,
2013-07-19 13:21:00,90.5,71.5,30.02,SSW,200,0.0,0.0,54,-99.99,,,-99.99,VWS V14.01,2013-07-19 17:21:00,
2013-07-19 13:22:00,90.5,71.5,30.02,SSW,200,0.0,0.0,54,-99.99,,,-99.99,VWS V14.01,2013-07-19 17:22:00,
2013-07-19 13:23:00,90.5,71.7,30.02,SSW,200,0.0,0.0,54,-99.99,,,-99.99,VWS V14.01,2013-07-19 17:23:00,
2013-07-19 13:24:00,90.7,71.8,30.02,SSW,200,0.0,0.0,54,-99.99,,,-99.99,VWS V14.01,2013-07-19 17:24:00,
2013-07-19 13:25:00,90.9,71.7,30.02,WSW,248,0.0,0.0,54,-99.99,,,-99.99,VWS V14.01,2013-07-19 17:25:00,
2013-07-19 13:26:00,90.7,71.7,30.02,WSW,248,0.0,0.0,54,-99.99,,,-99.99,VWS V14.01,2013-07-19 17:26:00,
2013-07-19 13:27:00,90.8,71.5,30.02,West,262,0.0,7.3,53,-99.99,,,-99.99,VWS V14.01,2013-07-19 17:27:00,
2013-07-19 13:28:00,90.8,70.8,30.02,West,262,0.0,0.0,52,-99.99,,,-99.99,VWS V14.01,2013-07-19 17:28:00,
2013-07-19 13:29:00,90.8,70.6,30.02,West,262,0.0,3.0,52,-99.99,,,-99.99,VWS V14.01,2013-07-19 17:29:00,
2013-07-19 13:30:00,90.8,70.3,30.02,West,263,0.0,0.0,51,-99.99,,,-99.99,VWS V14.01,2013-07-19 17:30:00,
2013-07-19 13:31:00,90.8,70.2,30.02,West,276,0.0,3.3,51,-99.99,,,-99.99,VWS V14.01,2013-07-19 17:31:00,
2013-07-19 13:32:00,90.9,70.5,30.01,NW,326,6.5,6.5,51,-99.99,,,-99.99,VWS V14.01,2013-07-19 17:32:00,
2013-07-19 13:33:00,90.8,70.5,30.01,WNW,301,3.4,6.8,52,-99.99,,,-99.99,VWS V14.01,2013-07-19 17:33:00,
2013-07-19 13:34:00,90.8,70.4,30.01,WNW,301,0.0,3.4,51,-99.99,,,-99.99,VWS V14.01,2013-07-19 17:34:00,
2013-07-19 13:35:00,90.8,70.4,30.01,WNW,301,0.0,0.0,51,-99.99,,,-99.99,VWS V14.01,2013-07-19 17:35:00,
2013-07-19 13:36:00,90.7,70.6,30.01,WNW,301,0.0,0.0,52,-99.99,,,-99.99,VWS V14.01,2013-07-19 17:36:00,
2013-07-19 13:37:00,90.8,70.9,30.01,WNW,288,7.7,7.7,52,-99.99,,,-99.99,VWS V14.01,2013-07-19 17:37:00,
2013-07-19 13:38:00,90.8,70.4,30.02,West,267,0.0,7.7,51,-99.99,,,-99.99,VWS V14.01,2013-07-19 17:38:00,
2013-07-19 13:39:00,90.8,70.7,30.02,West,267,0.0,3.2,52,-99.99,,,-99.99,VWS V14.01,2013-07-19 17:39:00,
2013-07-19 13:40:00,90.8,71.1,30.01,WNW,302,6.3,6.3,53,-99.99,,,-99.99,VWS V14.01,2013-07-19 17:40:00,
2013-07-19 13:41:00,90.9,70.7,30.01,WNW,292,3.2,7.6,52,-99.99,,,-99.99,VWS V14.01,2013-07-19 17:41:00,
2013-07-19 13:42:00,90.9,70.7,30.01,WNW,292,0.0,3.2,52,-99.99,,,-99.99,VWS V14.01,2013-07-19 17:42:00,
2013-07-19 13:43:00,90.9,70.7,30.01,SSW,211,2.3,7.1,52,-99.99,,,-99.99,VWS V14.01,2013-07-19 17:43:00,
2013-07-19 13:44:00,91.0,70.7,30.01,NW,311,3.4,7.3,52,-99.99,,,-99.99,VWS V14.01,2013-07-19 17:44:00,
2013-07-19 13:45:00,90.9,70.7,30.01,NW,321,4.6,7.6,52,-99.99,,,-99.99,VWS V14.01,2013-07-19 17:45:00,
2013-07-19 13:46:00,90.9,70.4,30.01,WSW,240,0.0,9.8,51,-99.99,,,-99.99,VWS V14.01,2013-07-19 17:46:00,
2013-07-19 13:47:00,90.8,70.7,30.01,WNW,294,0.0,6.2,52,-99.99,,,-99.99,VWS V14.01,2013-07-19 17:47:00,
2013-07-19 13:48:00,90.8,70.8,30.01,NW,304,8.9,8.9,52,-99.99,,,-99.99,VWS V14.01,2013-07-19 17:48:00,
2013-07-19 13:49:00,90.8,70.9,30.01,WNW,292,5.3,8.9,52,-99.99,,,-99.99,VWS V14.01,2013-07-19 17:49:00,
2013-07-19 13:50:00,90.9,70.8,30.01,North,353,0.0,3.3,52,-99.99,,,-99.99,VWS V14.01,2013-07-19 17:50:00,
2013-07-19 13:51:00,90.8,70.9,30.01,NW,309,5.5,8.0,52,-99.99,,,-99.99,VWS V14.01,2013-07-19 17:51:00,
2013-07-19 13:52:00,90.9,71.0,30.01,South,170,4.5,9.5,52,-99.99,,,-99.99,VWS V14.01,2013-07-19 17:52:00,
2013-07-19 13:53:00,90.8,70.5,30.01,NW,325,4.3,9.1,52,-99.99,,,-99.99,VWS V14.01,2013-07-19 17:53:00,
2013-07-19 13:54:00,90.8,70.4,30.01,NW,309,7.7,9.4,51,-99.99,,,-99.99,VWS V14.01,2013-07-19 17:54:00,
2013-07-19 13:55:00,90.7,70.7,30.01,WNW,291,0.0,4.8,52,-99.99,,,-99.99,VWS V14.01,2013-07-19 17:55:00,
2013-07-19 13:56:00,90.8,71.0,30.01,SW,232,0.0,4.8,52,-99.99,,,-99.99,VWS V14.01,2013-07-19 17:56:00,
2013-07-19 13:57:00,90.7,70.8,30.01,SW,232,0.0,0.0,52,-99.99,,,-99.99,VWS V14.01,2013-07-19 17:57:00,
2013-07-19 13:58:00,90.8,70.9,30.01,SW,232,0.0,0.0,52,-99.99,,,-99.99,VWS V14.01,2013-07-19 17:58:00,
2013-07-19 13:59:00,90.8,70.9,30.00,WNW,300,5.8,6.1,52,-99.99,,,-99.99,VWS V14.01,2013-07-19 17:59:00,
2013-07-19 14:00:00,90.8,70.8,30.00,NW,321,0.0,0.0,52,-99.99,,,-99.99,VWS V14.01,2013-07-19 18:00:00,
2013-07-19 14:01:00,90.8,71.0,30.00,NW,321,0.0,0.0,52,-99.99,,,-99.99,VWS V14.01,2013-07-19 18:01:00,
2013-07-19 14:02:00,90.9,71.2,30.00,North,357,6.2,8.8,53,-99.99,,,-99.99,VWS V14.01,2013-07-19 18:02:00,
2013-07-19 14:03:00,90.8,70.9,30.00,NW,318,0.0,6.2,52,-99.99,,,-99.99,VWS V14.01,2013-07-19 18:03:00,
2013-07-19 14:04:00,90.7,71.2,30.00,NW,316,0.0,3.4,53,-99.99,,,-99.99,VWS V14.01,2013-07-19 18:04:00,
2013-07-19 14:05:00,90.7,71.4,30.00,NW,322,0.0,4.6,53,-99.99,,,-99.99,VWS V14.01,2013-07-19 18:05:00,
2013-07-19 14:06:00,90.6,71.3,30.00,NW,325,7.9,9.4,53,-99.99,,,-99.99,VWS V14.01,2013-07-19 18:06:00,
2013-07-19 14:07:00,90.6,71.2,30.00,West,269,3.0,7.9,53,-99.99,,,-99.99,VWS V14.01,2013-07-19 18:07:00,
2013-07-19 14:08:00,90.5,70.8,30.00,West,278,4.6,7.3,52,-99.99,,,-99.99,VWS V14.01,2013-07-19 18:08:00,
2013-07-19 14:09:00,90.5,70.4,30.00,WSW,248,6.1,8.0,52,-99.99,,,-99.99,VWS V14.01,2013-07-19 18:09:00,
2013-07-19 14:10:00,90.6,70.9,30.00,West,267,0.0,3.3,53,-99.99,,,-99.99,VWS V14.01,2013-07-19 18:10:00,
2013-07-19 14:11:00,90.6,70.9,30.00,NW,326,6.8,6.8,53,-99.99,,,-99.99,VWS V14.01,2013-07-19 18:11:00,
2013-07-19 14:12:00,90.6,71.0,29.99,WNW,292,6.8,7.6,53,-99.99,,,-99.99,VWS V14.01,2013-07-19 18:12:00,
2013-07-19 14:13:00,90.5,71.1,29.99,NW,322,0.0,6.8,53,-99.99,,,-99.99,VWS V14.01,2013-07-19 18:13:00,
2013-07-19 14:14:00,90.5,71.2,29.99,NW,322,0.0,0.0,53,-99.99,,,-99.99,VWS V14.01,2013-07-19 18:14:00,
2013-07-19 14:15:00,90.5,71.3,29.99,WNW,285,4.7,5.5,54,-99.99,,,-99.99,VWS V14.01,2013-07-19 18:15:00,
2013-07-19 14:16:00,90.5,71.3,29.99,NW,305,0.0,5.5,54,-99.99,,,-99.99,VWS V14.01,2013-07-19 18:16:00,
2013-07-19 14:17:00,90.6,71.2,29.99,NW,305,0.0,2.8,53,-99.99,,,-99.99,VWS V14.01,2013-07-19 18:17:00,
2013-07-19 14:18:00,90.5,70.9,29.99,NW,305,0.0,0.0,53,-99.99,,,-99.99,VWS V14.01,2013-07-19 18:18:00,
2013-07-19 14:19:00,90.6,71.5,29.99,NW,305,0.0,0.0,54,-99.99,,,-99.99,VWS V14.01,2013-07-19 18:19:00,
2013-07-19 14:20:00,90.6,71.0,29.99,NNW,342,0.0,0.0,53,-99.99,,,-99.99,VWS V14.01,2013-07-19 18:20:00,
2013-07-19 14:21:00,90.7,71.3,29.99,NNW,342,0.0,0.0,53,-99.99,,,-99.99,VWS V14.01,2013-07-19 18:21:00,
2013-07-19 14:22:00,90.7,71.4,29.99,NNW,342,0.0,0.0,53,-99.99,,,-99.99,VWS V14.01,2013-07-19 18:22:00,
2013-07-19 14:23:00,90.7,71.1,29.99,NNW,342,0.0,0.0,53,-99.99,,,-99.99,VWS V14.01,2013-07-19 18:23:00,
2013-07-19 14:24:00,90.8,71.2,29.99,NNW,342,0.0,0.0,53,-99.99,,,-99.99,VWS V14.01,2013-07-19 18:24:00,
2013-07-19 14:25:00,90.7,70.9,29.99,NNW,342,0.0,0.0,52,-99.99,,,-99.99,VWS V14.01,2013-07-19 18:25:00,
2013-07-19 14:26:00,90.6,71.1,29.99,NW,311,0.0,5.8,53,-99.99,,,-99.99,VWS V14.01,2013-07-19 18:26:00,
2013-07-19 14:27:00,90.7,71.2,29.99,WNW,302,0.0,6.3,53,-99.99,,,-99.99,VWS V14.01,2013-07-19 18:27:00,
2013-07-19 14:28:00,90.7,70.9,29.99,WNW,302,0.0,0.0,52,-99.99,,,-99.99,VWS V14.01,2013-07-19 18:28:00,
2013-07-19 14:29:00,90.6,71.4,29.98,WNW,302,2.4,3.3,53,-99.99,,,-99.99,VWS V14.01,2013-07-19 18:29:00,
2013-07-19 14:30:00,90.6,71.5,29.98,NNW,328,0.0,6.4,54,-99.99,,,-99.99,VWS V14.01,2013-07-19 18:30:00,
2013-07-19 14:31:00,90.7,71.4,29.99,NNW,343,5.5,7.3,53,-99.99,,,-99.99,VWS V14.01,2013-07-19 18:31:00,
2013-07-19 14:32:00,90.8,70.2,29.98,WNW,292,0.0,7.8,51,-99.99,,,-99.99,VWS V14.01,2013-07-19 18:32:00,
2013-07-19 14:33:00,90.7,69.9,29.98,West,264,4.3,7.2,51,-99.99,,,-99.99,VWS V14.01,2013-07-19 18:33:00,
2013-07-19 14:34:00,90.9,70.5,29.98,WNW,284,3.4,5.1,51,-99.99,,,-99.99,VWS V14.01,2013-07-19 18:34:00,
2013-07-19 14:35:00,90.9,70.9,29.98,NNW,330,4.7,6.3,52,-99.99,,,-99.99,VWS V14.01,2013-07-19 18:35:00,
2013-07-19 14:36:00,90.8,70.4,29.98,SW,231,0.0,7.0,51,-99.99,,,-99.99,VWS V14.01,2013-07-19 18:36:00,
2013-07-19 14:37:00,90.9,70.5,29.98,NW,326,4.3,5.5,51,-99.99,,,-99.99,VWS V14.01,2013-07-19 18:37:00,
2013-07-19 14:38:00,90.8,70.2,29.98,WSW,252,0.0,9.5,51,-99.99,,,-99.99,VWS V14.01,2013-07-19 18:38:00,
2013-07-19 14:39:00,90.8,70.2,29.98,WNW,285,4.9,11.5,51,-99.99,,,-99.99,VWS V14.01,2013-07-19 18:39:00,
2013-07-19 14:40:00,90.6,70.3,29.97,NNW,339,0.0,0.0,52,-99.99,,,-99.99,VWS V14.01,2013-07-19 18:40:00,
2013-07-19 14:41:00,90.6,70.8,29.98,NW,321,7.6,11.6,52,-99.99,,,-99.99,VWS V14.01,2013-07-19 18:41:00,
2013-07-19 14:42:00,90.7,70.7,29.98,SW,235,6.4,10.8,52,-99.99,,,-99.99,VWS V14.01,2013-07-19 18:42:00,
2013-07-19 14:43:00,90.7,70.9,29.98,WSW,255,0.0,7.5,52,-99.99,,,-99.99,VWS V14.01,2013-07-19 18:43:00,
2013-07-19 14:44:00,90.6,71.0,29.98,WNW,290,5.2,9.1,53,-99.99,,,-99.99,VWS V14.01,2013-07-19 18:44:00,
2013-07-19 14:45:00,90.7,71.1,29.97,SW,222,0.0,4.2,53,-99.99,,,-99.99,VWS V14.01,2013-07-19 18:45:00,
2013-07-19 14:46:00,90.6,70.9,29.97,WNW,295,4.1,6.6,53,-99.99,,,-99.99,VWS V14.01,2013-07-19 18:46:00,
2013-07-19 14:47:00,90.6,70.8,29.97,NNW,343,4.6,7.0,52,-99.99,,,-99.99,VWS V14.01,2013-07-19 18:47:00,
2013-07-19 14:48:00,90.7,71.0,29.97,NW,325,0.0,5.2,53,-99.99,,,-99.99,VWS V14.01,2013-07-19 18:48:00,
2013-07-19 14:49:00,90.8,71.0,29.98,SW,233,0.0,6.2,52,-99.99,,,-99.99,VWS V14.01,2013-07-19 18:49:00,
2013-07-19 14:50:00,90.9,70.8,29.97,WSW,248,0.0,0.0,52,-99.99,,,-99.99,VWS V14.01,2013-07-19 18:50:00,
2013-07-19 14:51:00,90.9,71.1,29.97,WSW,248,0.0,0.0,52,-99.99,,,-99.99,VWS V14.01,2013-07-19 18:51:00,
2013-07-19 14:52:00,91.0,71.0,29.98,SW,233,0.0,2.9,52,-99.99,,,-99.99,VWS V14.01,2013-07-19 18:52:00,
2013-07-19 14:53:00,91.2,70.6,29.97,NW,323,7.6,7.6,51,-99.99,,,-99.99,VWS V14.01,2013-07-19 18:53:00,
2013-07-19 14:54:00,91.3,70.2,29.97,North,359,0.0,7.8,50,-99.99,,,-99.99,VWS V14.01,2013-07-19 18:54:00,
2013-07-19 14:55:00,91.0,69.8,29.97,NW,323,6.9,10.4,50,-99.99,,,-99.99,VWS V14.01,2013-07-19 18:55:00,
2013-07-19 14:56:00,91.0,69.9,29.97,NNW,332,0.0,10.4,50,-99.99,,,-99.99,VWS V14.01,2013-07-19 18:56:00,
2013-07-19 14:57:00,91.2,70.4,29.97,NNW,332,0.0,0.0,51,-99.99,,,-99.99,VWS V14.01,2013-07-19 18:57:00,
2013-07-19 14:58:00,91.0,70.3,29.97,NW,315,3.5,3.5,51,-99.99,,,-99.99,VWS V14.01,2013-07-19 18:58:00,
2013-07-19 14:59:00,91.2,70.4,29.97,NW,312,0.0,3.5,51,-99.99,,,-99.99,VWS V14.01,2013-07-19 18:59:00,
2013-07-19 15:00:00,91.2,70.4,29.97,NW,312,0.0,0.0,51,-99.99,,,-99.99,VWS V14.01,2013-07-19 19:00:00,
2013-07-19 15:01:00,91.2,70.3,29.97,NW,311,0.0,7.4,50,-99.99,,,-99.99,VWS V14.01,2013-07-19 19:01:00,
2013-07-19 15:02:00,91.2,70.2,29.97,West,262,0.0,6.2,50,-99.99,,,-99.99,VWS V14.01,2013-07-19 19:02:00,
2013-07-19 15:09:00,91.5,70.4,29.97,North,1,0.0,0.0,50,-99.99,,,-99.99,VWS V14.01,2013-07-19 19:09:00,
2013-07-19 15:10:00,91.4,70.6,29.97,North,1,0.0,0.0,51,-99.99,,,-99.99,VWS V14.01,2013-07-19 19:10:00,
2013-07-19 15:11:00,91.4,70.9,29.97,West,262,5.3,8.3,51,-99.99,,,-99.99,VWS V14.01,2013-07-19 19:11:00,
2013-07-19 15:12:00,91.6,71.2,29.97,SE,141,0.0,5.3,51,-99.99,,,-99.99,VWS V14.01,2013-07-19 19:12:00,
2013-07-19 15:13:00,91.5,71.1,29.98,WSW,250,3.4,6.1,51,-99.99,,,-99.99,VWS V14.01,2013-07-19 19:13:00,
2013-07-19 15:14:00,91.5,71.2,29.97,West,277,3.5,7.7,52,-99.99,,,-99.99,VWS V14.01,2013-07-19 19:14:00,
2013-07-19 15:15:00,91.4,71.0,29.98,West,277,0.0,3.5,51,-99.99,,,-99.99,VWS V14.01,2013-07-19 19:15:00,
2013-07-19 15:16:00,91.5,71.4,29.98,West,277,0.0,0.0,52,-99.99,,,-99.99,VWS V14.01,2013-07-19 19:16:00,
2013-07-19 15:17:00,91.4,71.3,29.98,NW,307,0.0,5.5,52,-99.99,,,-99.99,VWS V14.01,2013-07-19 19:17:00,
2013-07-19 15:18:00,91.4,71.3,29.98,NW,319,0.0,3.4,52,-99.99,,,-99.99,VWS V14.01,2013-07-19 19:18:00,
2013-07-19 15:19:00,91.3,71.3,29.97,NW,319,0.0,0.0,52,-99.99,,,-99.99,VWS V14.01,2013-07-19 19:19:00,
2013-07-19 15:20:00,91.3,71.6,29.97,NW,319,0.0,0.0,53,-99.99,,,-99.99,VWS V14.01,2013-07-19 19:20:00,
2013-07-19 15:21:00,91.3,71.5,29.98,NW,319,0.0,0.0,52,-99.99,,,-99.99,VWS V14.01,2013-07-19 19:21:00,
2013-07-19 15:22:00,91.2,71.5,29.98,NW,319,0.0,0.0,53,-99.99,,,-99.99,VWS V14.01,2013-07-19 19:22:00,
2013-07-19 15:23:00,91.3,71.9,29.98,NW,314,1.1,7.0,53,-99.99,,,-99.99,VWS V14.01,2013-07-19 19:23:00,
2013-07-19 15:24:00,91.0,70.7,29.97,West,273,3.4,3.4,52,-99.99,,,-99.99,VWS V14.01,2013-07-19 19:24:00,
2013-07-19 15:25:00,90.9,70.7,29.98,NNW,333,3.5,8.8,52,-99.99,,,-99.99,VWS V14.01,2013-07-19 19:25:00,
2013-07-19 15:26:00,90.8,70.7,29.97,WNW,291,0.0,6.7,52,-99.99,,,-99.99,VWS V14.01,2013-07-19 19:26:00,
2013-07-19 15:27:00,90.7,70.7,29.97,West,271,0.0,4.7,52,-99.99,,,-99.99,VWS V14.01,2013-07-19 19:27:00,
2013-07-19 15:28:00,90.6,71.0,29.97,West,280,0.0,3.2,53,-99.99,,,-99.99,VWS V14.01,2013-07-19 19:28:00,
2013-07-19 15:29:00,90.5,71.1,29.97,West,280,0.0,0.0,53,-99.99,,,-99.99,VWS V14.01,2013-07-19 19:29:00,
2013-07-19 15:30:00,90.5,71.3,29.97,West,280,0.0,0.0,54,-99.99,,,-99.99,VWS V14.01,2013-07-19 19:30:00,
2013-07-19 15:31:00,90.4,71.0,29.97,West,280,0.0,0.0,53,-99.99,,,-99.99,VWS V14.01,2013-07-19 19:31:00,
2013-07-19 15:32:00,90.3,71.4,29.98,West,280,0.0,0.0,54,-99.99,,,-99.99,VWS V14.01,2013-07-19 19:32:00,
2013-07-19 15:33:00,90.3,71.4,29.98,West,280,0.0,0.0,54,-99.99,,,-99.99,VWS V14.01,2013-07-19 19:33:00,
2013-07-19 15:34:00,90.1,71.1,29.97,West,280,0.0,0.0,54,-99.99,,,-99.99,VWS V14.01,2013-07-19 19:34:00,
2013-07-19 15:35:00,90.0,71.1,29.98,West,280,0.0,0.0,54,-99.99,,,-99.99,VWS V14.01,2013-07-19 19:35:00,
2013-07-19 15:36:00,90.0,71.3,29.98,WNW,290,5.3,5.5,54,-99.99,,,-99.99,VWS V14.01,2013-07-19 19:36:00,
2013-07-19 15:37:00,90.1,71.3,29.98,WNW,290,0.0,5.3,54,-99.99,,,-99.99,VWS V14.01,2013-07-19 19:37:00,
2013-07-19 15:38:00,90.0,71.6,29.98,WNW,290,0.0,0.0,55,-99.99,,,-99.99,VWS V14.01,2013-07-19 19:38:00,
2013-07-19 15:39:00,90.0,71.6,29.98,WNW,290,0.0,0.0,55,-99.99,,,-99.99,VWS V14.01,2013-07-19 19:39:00,
2013-07-19 15:40:00,89.8,71.3,29.98,NW,322,7.1,7.8,55,-99.99,,,-99.99,VWS V14.01,2013-07-19 19:40:00,
2013-07-19 15:41:00,89.7,71.3,29.98,WNW,300,0.0,8.3,55,-99.99,,,-99.99,VWS V14.01,2013-07-19 19:41:00,
2013-07-19 15:42:00,89.6,71.6,29.98,West,263,0.0,5.0,56,-99.99,,,-99.99,VWS V14.01,2013-07-19 19:42:00,
2013-07-19 15:43:00,89.3,71.7,29.97,NW,307,0.0,3.3,56,-99.99,,,-99.99,VWS V14.01,2013-07-19 19:43:00,
2013-07-19 15:44:00,89.3,71.7,29.97,NW,307,0.0,3.3,56,-99.99,,,-99.99,VWS V14.01,2013-07-19 19:44:00,
2013-07-19 15:45:00,89.2,71.8,29.98,NW,312,5.5,5.5,57,-99.99,,,-99.99,VWS V14.01,2013-07-19 19:45:00,
2013-07-19 15:46:00,89.0,71.8,29.98,WNW,302,0.0,5.7,57,-99.99,,,-99.99,VWS V14.01,2013-07-19 19:46:00,
2013-07-19 15:47:00,88.9,71.8,29.98,WNW,302,0.0,3.3,57,-99.99,,,-99.99,VWS V14.01,2013-07-19 19:47:00,
2013-07-19 15:48:00,88.9,72.2,29.98,NW,309,5.7,10.4,58,-99.99,,,-99.99,VWS V14.01,2013-07-19 19:48:00,
2013-07-19 15:49:00,88.9,72.2,29.98,NNW,342,8.5,10.4,58,-99.99,,,-99.99,VWS V14.01,2013-07-19 19:49:00,
2013-07-19 15:50:00,88.7,72.0,29.98,SW,218,4.4,8.6,58,-99.99,,,-99.99,VWS V14.01,2013-07-19 19:50:00,
2013-07-19 15:51:00,88.6,72.1,29.98,SW,217,0.0,4.4,58,-99.99,,,-99.99,VWS V14.01,2013-07-19 19:51:00,
2013-07-19 15:52:00,88.7,72.3,29.98,SW,217,0.0,0.0,59,-99.99,,,-99.99,VWS V14.01,2013-07-19 19:52:00,
2013-07-19 15:53:00,88.6,72.2,29.98,NW,319,4.9,8.3,58,-99.99,,,-99.99,VWS V14.01,2013-07-19 19:53:00,
2013-07-19 15:54:00,88.6,72.1,29.98,WNW,292,3.4,8.3,58,-99.99,,,-99.99,VWS V14.01,2013-07-19 19:54:00,
2013-07-19 15:55:00,88.6,72.3,29.99,WNW,292,0.0,4.2,59,-99.99,,,-99.99,VWS V14.01,2013-07-19 19:55:00,
2013-07-19 15:56:00,88.6,72.3,29.99,WNW,292,0.0,3.2,59,-99.99,,,-99.99,VWS V14.01,2013-07-19 19:56:00,
2013-07-19 15:57:00,88.5,72.2,29.99,NNW,339,3.0,5.5,59,-99.99,,,-99.99,VWS V14.01,2013-07-19 19:57:00,
2013-07-19 15:58:00,88.6,72.5,29.99,West,278,0.0,5.3,59,-99.99,,,-99.99,VWS V14.01,2013-07-19 19:58:00,
2013-07-19 15:59:00,88.6,72.4,29.99,West,278,0.0,5.3,59,-99.99,,,-99.99,VWS V14.01,2013-07-19 19:59:00,
2013-07-19 16:00:00,88.5,72.3,29.99,West,270,0.0,5.5,59,-99.99,,,-99.99,VWS V14.01,2013-07-19 20:00:00,
2013-07-19 16:01:00,88.5,71.8,29.98,West,270,0.0,0.0,58,-99.99,,,-99.99,VWS V14.01,2013-07-19 20:01:00,
2013-07-19 16:02:00,88.5,71.6,29.98,West,270,0.0,2.7,58,-99.99,,,-99.99,VWS V14.01,2013-07-19 20:02:00,
2013-07-19 16:03:00,88.3,71.6,29.98,WNW,287,6.7,9.4,58,-99.99,,,-99.99,VWS V14.01,2013-07-19 20:03:00,
2013-07-19 16:04:00,88.5,71.8,29.98,WNW,288,4.1,9.4,58,-99.99,,,-99.99,VWS V14.01,2013-07-19 20:04:00,
2013-07-19 16:05:00,88.2,71.7,29.98,NNW,343,5.1,10.9,58,-99.99,,,-99.99,VWS V14.01,2013-07-19 20:05:00,
2013-07-19 16:06:00,88.1,71.9,29.98,West,273,4.3,8.7,59,-99.99,,,-99.99,VWS V14.01,2013-07-19 20:06:00,
2013-07-19 16:07:00,88.1,72.0,29.98,West,273,2.8,4.3,59,-99.99,,,-99.99,VWS V14.01,2013-07-19 20:07:00,
2013-07-19 16:08:00,87.9,72.0,29.97,West,273,0.0,0.0,60,-99.99,,,-99.99,VWS V14.01,2013-07-19 20:08:00,
2013-07-19 16:09:00,87.9,72.0,29.98,West,273,0.0,0.0,60,-99.99,,,-99.99,VWS V14.01,2013-07-19 20:09:00,
2013-07-19 16:10:00,87.9,72.2,29.98,West,273,0.0,0.0,60,-99.99,,,-99.99,VWS V14.01,2013-07-19 20:10:00,
2013-07-19 16:11:00,87.7,72.1,29.98,West,273,0.0,0.0,60,-99.99,,,-99.99,VWS V14.01,2013-07-19 20:11:00,
2013-07-19 16:12:00,87.7,72.2,29.98,WNW,284,0.0,4.2,60,-99.99,,,-99.99,VWS V14.01,2013-07-19 20:12:00,
2013-07-19 16:13:00,87.7,72.5,29.97,NNW,345,7.8,8.7,61,-99.99,,,-99.99,VWS V14.01,2013-07-19 20:13:00,
2013-07-19 16:14:00,87.6,72.4,29.98,WNW,294,6.6,8.9,61,-99.99,,,-99.99,VWS V14.01,2013-07-19 20:14:00,
2013-07-19 16:15:00,87.5,72.4,29.97,West,266,2.2,7.8,61,-99.99,,,-99.99,VWS V14.01,2013-07-19 20:15:00,
2013-07-19 16:16:00,87.4,72.5,29.97,West,266,0.0,2.2,61,-99.99,,,-99.99,VWS V14.01,2013-07-19 20:16:00,
2013-07-19 16:17:00,87.4,72.5,29.97,West,266,0.0,0.0,61,-99.99,,,-99.99,VWS V14.01,2013-07-19 20:17:00,
2013-07-19 16:18:00,87.3,72.7,29.97,West,266,0.0,0.0,62,-99.99,,,-99.99,VWS V14.01,2013-07-19 20:18:00,
2013-07-19 16:19:00,87.3,72.7,29.97,West,266,0.0,0.0,62,-99.99,,,-99.99,VWS V14.01,2013-07-19 20:19:00,
2013-07-19 16:20:00,87.1,72.4,29.97,West,266,0.0,0.0,62,-99.99,,,-99.99,VWS V14.01,2013-07-19 20:20:00,
2013-07-19 16:21:00,87.1,72.6,29.98,West,266,0.0,0.0,62,-99.99,,,-99.99,VWS V14.01,2013-07-19 20:21:00,
2013-07-19 16:22:00,87.1,72.6,29.98,West,266,0.0,0.0,62,-99.99,,,-99.99,VWS V14.01,2013-07-19 20:22:00,
2013-07-19 16:23:00,86.8,72.2,29.97,WNW,297,0.0,3.4,62,-99.99,,,-99.99,VWS V14.01,2013-07-19 20:23:00,
2013-07-19 16:24:00,86.7,72.1,29.98,WNW,297,0.0,3.4,62,-99.99,,,-99.99,VWS V14.01,2013-07-19 20:24:00,
2013-07-19 16:25:00,86.8,72.3,29.98,WNW,297,0.0,0.0,62,-99.99,,,-99.99,VWS V14.01,2013-07-19 20:25:00,
2013-07-19 16:26:00,86.8,72.2,29.98,WNW,297,0.0,0.0,62,-99.99,,,-99.99,VWS V14.01,2013-07-19 20:26:00,
2013-07-19 16:27:00,86.6,72.1,29.98,WNW,297,0.0,0.0,62,-99.99,,,-99.99,VWS V14.01,2013-07-19 20:27:00,
2013-07-19 16:28:00,86.7,72.5,29.97,WNW,297,0.0,0.0,63,-99.99,,,-99.99,VWS V14.01,2013-07-19 20:28:00,
2013-07-19 16:29:00,86.7,72.5,29.97,WNW,297,0.0,0.0,63,-99.99,,,-99.99,VWS V14.01,2013-07-19 20:29:00,
2013-07-19 16:30:00,86.7,72.3,29.97,WNW,297,0.0,0.0,62,-99.99,,,-99.99,VWS V14.01,2013-07-19 20:30:00,
2013-07-19 16:31:00,86.7,72.2,29.97,WNW,297,0.0,0.0,62,-99.99,,,-99.99,VWS V14.01,2013-07-19 20:31:00,
2013-07-19 16:32:00,86.6,72.1,29.97,WNW,297,0.0,0.0,62,-99.99,,,-99.99,VWS V14.01,2013-07-19 20:32:00,
2013-07-19 16:33:00,86.4,72.0,29.96,WNW,297,0.0,0.0,62,-99.99,,,-99.99,VWS V14.01,2013-07-19 20:33:00,
2013-07-19 16:34:00,86.4,72.0,29.96,WNW,297,0.0,0.0,62,-99.99,,,-99.99,VWS V14.01,2013-07-19 20:34:00,
2013-07-19 16:35:00,86.4,72.1,29.96,WNW,297,0.0,0.0,63,-99.99,,,-99.99,VWS V14.01,2013-07-19 20:35:00,
2013-07-19 16:36:00,86.2,72.0,29.96,WNW,297,0.0,0.0,63,-99.99,,,-99.99,VWS V14.01,2013-07-19 20:36:00,
2013-07-19 16:37:00,86.2,72.1,29.96,WNW,297,0.0,0.0,63,-99.99,,,-99.99,VWS V14.01,2013-07-19 20:37:00,
2013-07-19 16:38:00,86.0,71.9,29.96,WNW,297,0.0,0.0,63,-99.99,,,-99.99,VWS V14.01,2013-07-19 20:38:00,
2013-07-19 16:39:00,86.0,71.9,29.96,WNW,297,0.0,0.0,63,-99.99,,,-99.99,VWS V14.01,2013-07-19 20:39:00,
2013-07-19 16:40:00,85.9,71.9,29.96,North,6,0.0,5.3,63,-99.99,,,-99.99,VWS V14.01,2013-07-19 20:40:00,
2013-07-19 16:41:00,85.6,71.9,29.96,WNW,283,0.0,8.8,64,-99.99,,,-99.99,VWS V14.01,2013-07-19 20:41:00,
2013-07-19 16:42:00,85.6,72.0,29.96,NNW,330,0.0,5.6,64,-99.99,,,-99.99,VWS V14.01,2013-07-19 20:42:00,
2013-07-19 16:43:00,85.5,72.2,29.96,NNW,330,0.0,0.0,65,-99.99,,,-99.99,VWS V14.01,2013-07-19 20:43:00,
2013-07-19 16:44:00,85.5,72.3,29.96,NNW,330,0.0,0.0,65,-99.99,,,-99.99,VWS V14.01,2013-07-19 20:44:00,
2013-07-19 16:45:00,85.3,72.0,29.96,South,183,0.0,4.2,64,-99.99,,,-99.99,VWS V14.01,2013-07-19 20:45:00,
2013-07-19 16:46:00,85.5,72.2,29.96,South,183,0.0,0.0,65,-99.99,,,-99.99,VWS V14.01,2013-07-19 20:46:00,
2013-07-19 16:47:00,85.3,72.0,29.96,West,281,0.0,5.8,64,-99.99,,,-99.99,VWS V14.01,2013-07-19 20:47:00,
2013-07-19 16:48:00,85.2,71.8,29.96,NW,305,5.0,5.8,64,-99.99,,,-99.99,VWS V14.01,2013-07-19 20:48:00,
2013-07-19 16:49:00,85.2,71.8,29.96,WSW,252,0.0,5.8,64,-99.99,,,-99.99,VWS V14.01,2013-07-19 20:49:00,
2013-07-19 16:50:00,85.2,71.8,29.95,WSW,252,0.0,0.0,64,-99.99,,,-99.99,VWS V14.01,2013-07-19 20:50:00,
2013-07-19 16:51:00,85.1,71.7,29.95,WSW,252,0.0,0.0,64,-99.99,,,-99.99,VWS V14.01,2013-07-19 20:51:00,
2013-07-19 16:52:00,85.1,71.7,29.96,WSW,252,0.0,0.0,64,-99.99,,,-99.99,VWS V14.01,2013-07-19 20:52:00,
2013-07-19 16:53:00,85.1,71.8,29.95,WSW,252,0.0,0.0,64,-99.99,,,-99.99,VWS V14.01,2013-07-19 20:53:00,
2013-07-19 16:54:00,85.1,71.8,29.95,WSW,252,0.0,0.0,64,-99.99,,,-99.99,VWS V14.01,2013-07-19 20:54:00,
2013-07-19 16:55:00,85.0,71.8,29.95,WSW,252,0.0,0.0,65,-99.99,,,-99.99,VWS V14.01,2013-07-19 20:55:00,
2013-07-19 16:56:00,85.0,71.8,29.95,WSW,252,0.0,0.0,65,-99.99,,,-99.99,VWS V14.01,2013-07-19 20:56:00,
2013-07-19 16:57:00,85.0,71.8,29.95,NW,315,6.8,8.0,65,-99.99,,,-99.99,VWS V14.01,2013-07-19 20:57:00,
2013-07-19 16:58:00,84.9,71.3,29.95,WNW,302,0.0,0.0,64,-99.99,,,-99.99,VWS V14.01,2013-07-19 20:58:00,
2013-07-19 16:59:00,84.8,71.2,29.95,WSW,252,4.3,4.7,64,-99.99,,,-99.99,VWS V14.01,2013-07-19 20:59:00,
2013-07-19 17:00:00,84.9,71.3,29.95,WSW,238,0.0,4.3,64,-99.99,,,-99.99,VWS V14.01,2013-07-19 21:00:00,
2013-07-19 17:01:00,84.7,71.1,29.95,WSW,238,0.0,0.0,64,-99.99,,,-99.99,VWS V14.01,2013-07-19 21:01:00,
2013-07-19 17:02:00,84.7,71.0,29.95,WSW,238,0.0,0.0,64,-99.99,,,-99.99,VWS V14.01,2013-07-19 21:02:00,
2013-07-19 17:03:00,84.6,71.1,29.95,WSW,238,0.0,0.0,64,-99.99,,,-99.99,VWS V14.01,2013-07-19 21:03:00,
2013-07-19 17:04:00,84.6,71.1,29.95,WSW,238,0.0,0.0,64,-99.99,,,-99.99,VWS V14.01,2013-07-19 21:04:00,
2013-07-19 17:05:00,84.7,71.6,29.95,WSW,238,0.0,0.0,65,-99.99,,,-99.99,VWS V14.01,2013-07-19 21:05:00,
2013-07-19 17:06:00,84.7,71.4,29.95,WSW,238,0.0,0.0,64,-99.99,,,-99.99,VWS V14.01,2013-07-19 21:06:00,
2013-07-19 17:07:00,84.6,70.9,29.95,WSW,238,0.0,0.0,64,-99.99,,,-99.99,VWS V14.01,2013-07-19 21:07:00,
2013-07-19 17:08:00,84.7,70.9,29.95,SE,124,0.0,5.2,64,-99.99,,,-99.99,VWS V14.01,2013-07-19 21:08:00,
2013-07-19 17:09:00,84.6,70.8,29.95,SE,124,0.0,5.2,63,-99.99,,,-99.99,VWS V14.01,2013-07-19 21:09:00,
2013-07-19 17:10:00,84.6,70.2,29.95,SE,124,0.0,0.0,62,-99.99,,,-99.99,VWS V14.01,2013-07-19 21:10:00,
2013-07-19 17:11:00,84.6,70.2,29.95,SE,138,6.6,6.6,62,-99.99,,,-99.99,VWS V14.01,2013-07-19 21:11:00,
2013-07-19 17:12:00,84.5,70.2,29.95,ESE,103,0.0,7.5,62,-99.99,,,-99.99,VWS V14.01,2013-07-19 21:12:00,
2013-07-19 17:13:00,84.3,69.7,29.95,ESE,112,0.0,5.8,62,-99.99,,,-99.99,VWS V14.01,2013-07-19 21:13:00,
2013-07-19 17:14:00,84.5,69.4,29.95,ESE,112,0.0,5.8,61,-99.99,,,-99.99,VWS V14.01,2013-07-19 21:14:00,
2013-07-19 17:15:00,84.4,69.4,29.95,ESE,112,0.0,0.0,61,-99.99,,,-99.99,VWS V14.01,2013-07-19 21:15:00,
2013-07-19 17:16:00,84.2,69.1,29.95,ESE,112,0.0,0.0,61,-99.99,,,-99.99,VWS V14.01,2013-07-19 21:16:00,
2013-07-19 17:17:00,84.1,69.1,29.95,ESE,112,0.0,0.0,61,-99.99,,,-99.99,VWS V14.01,2013-07-19 21:17:00,
2013-07-19 17:18:00,84.0,69.3,29.95,ESE,112,0.0,0.0,61,-99.99,,,-99.99,VWS V14.01,2013-07-19 21:18:00,
2013-07-19 17:19:00,84.0,69.3,29.95,ESE,112,0.0,0.0,61,-99.99,,,-99.99,VWS V14.01,2013-07-19 21:19:00,
2013-07-19 17:20:00,83.8,68.0,29.95,ESE,112,0.0,0.0,59,-99.99,,,-99.99,VWS V14.01,2013-07-19 21:20:00,
2013-07-19 17:21:00,83.9,68.3,29.94,ESE,112,0.0,0.0,60,-99.99,,,-99.99,VWS V14.01,2013-07-19 21:21:00,
2013-07-19 17:22:00,83.8,67.9,29.94,ESE,112,0.0,0.0,59,-99.99,,,-99.99,VWS V14.01,2013-07-19 21:22:00,
2013-07-19 17:23:00,83.9,68.6,29.95,ESE,112,0.0,0.0,60,-99.99,,,-99.99,VWS V14.01,2013-07-19 21:23:00,
2013-07-19 17:24:00,84.0,68.7,29.94,ESE,112,0.0,0.0,60,-99.99,,,-99.99,VWS V14.01,2013-07-19 21:24:00,
2013-07-19 17:25:00,84.0,68.9,29.95,ESE,112,0.0,0.0,60,-99.99,,,-99.99,VWS V14.01,2013-07-19 21:25:00,
2013-07-19 17:26:00,84.0,68.7,29.95,SE,145,0.0,3.5,60,-99.99,,,-99.99,VWS V14.01,2013-07-19 21:26:00,
2013-07-19 17:27:00,84.0,68.7,29.95,SE,146,0.0,4.2,60,-99.99,,,-99.99,VWS V14.01,2013-07-19 21:27:00,
2013-07-19 17:28:00,84.0,68.2,29.95,SE,146,0.0,0.0,59,-99.99,,,-99.99,VWS V14.01,2013-07-19 21:28:00,
2013-07-19 17:29:00,84.0,68.1,29.95,SE,146,0.0,0.0,59,-99.99,,,-99.99,VWS V14.01,2013-07-19 21:29:00,
2013-07-19 17:30:00,84.0,68.1,29.95,SE,146,0.0,0.0,59,-99.99,,,-99.99,VWS V14.01,2013-07-19 21:30:00,
2013-07-19 17:31:00,84.1,68.2,29.95,SE,141,4.2,6.5,59,-99.99,,,-99.99,VWS V14.01,2013-07-19 21:31:00,
2013-07-19 17:32:00,84.1,68.3,29.95,SE,141,0.0,4.2,59,-99.99,,,-99.99,VWS V14.01,2013-07-19 21:32:00,
2013-07-19 17:33:00,84.2,68.2,29.95,SE,141,0.0,0.0,59,-99.99,,,-99.99,VWS V14.01,2013-07-19 21:33:00,
2013-07-19 17:34:00,84.2,68.2,29.95,SE,141,0.0,0.0,59,-99.99,,,-99.99,VWS V14.01,2013-07-19 21:34:00,
2013-07-19 17:35:00,84.3,68.3,29.94,South,187,3.5,5.2,59,-99.99,,,-99.99,VWS V14.01,2013-07-19 21:35:00,
2013-07-19 17:36:00,84.1,68.0,29.95,SE,127,3.4,7.7,59,-99.99,,,-99.99,VWS V14.01,2013-07-19 21:36:00,
2013-07-19 17:37:00,84.2,68.3,29.94,ESE,115,0.0,4.7,59,-99.99,,,-99.99,VWS V14.01,2013-07-19 21:37:00,
2013-07-19 17:38:00,84.2,68.6,29.95,SSE,149,5.6,5.6,60,-99.99,,,-99.99,VWS V14.01,2013-07-19 21:38:00,
2013-07-19 17:39:00,84.3,68.7,29.94,ESE,103,0.0,6.3,60,-99.99,,,-99.99,VWS V14.01,2013-07-19 21:39:00,
2013-07-19 17:40:00,84.2,68.6,29.94,SSE,148,0.0,4.2,60,-99.99,,,-99.99,VWS V14.01,2013-07-19 21:40:00,
2013-07-19 17:41:00,84.1,68.3,29.94,ESE,120,6.5,8.3,59,-99.99,,,-99.99,VWS V14.01,2013-07-19 21:41:00,
2013-07-19 17:42:00,84.1,68.3,29.94,SE,134,2.9,6.5,59,-99.99,,,-99.99,VWS V14.01,2013-07-19 21:42:00,
2013-07-19 17:43:00,84.0,68.3,29.94,SE,128,0.0,4.3,59,-99.99,,,-99.99,VWS V14.01,2013-07-19 21:43:00,
2013-07-19 17:44:00,84.0,68.3,29.94,SE,128,0.0,4.3,59,-99.99,,,-99.99,VWS V14.01,2013-07-19 21:44:00,
2013-07-19 17:45:00,84.0,68.3,29.94,SSE,167,0.0,6.0,59,-99.99,,,-99.99,VWS V14.01,2013-07-19 21:45:00,
2013-07-19 17:46:00,84.0,68.5,29.94,East,101,0.0,5.2,60,-99.99,,,-99.99,VWS V14.01,2013-07-19 21:46:00,
2013-07-19 17:47:00,84.0,68.4,29.94,ESE,114,3.4,6.7,60,-99.99,,,-99.99,VWS V14.01,2013-07-19 21:47:00,
2013-07-19 17:48:00,83.9,68.3,29.95,East,89,8.3,8.3,60,-99.99,,,-99.99,VWS V14.01,2013-07-19 21:48:00,
2013-07-19 17:49:00,83.9,68.4,29.94,ESE,103,6.6,8.3,60,-99.99,,,-99.99,VWS V14.01,2013-07-19 21:49:00,
2013-07-19 17:50:00,83.9,68.4,29.94,ESE,104,0.0,7.0,60,-99.99,,,-99.99,VWS V14.01,2013-07-19 21:50:00,
2013-07-19 17:51:00,83.8,68.3,29.94,ESE,104,0.0,0.0,60,-99.99,,,-99.99,VWS V14.01,2013-07-19 21:51:00,
2013-07-19 17:52:00,83.8,68.3,29.94,East,97,0.0,6.2,60,-99.99,,,-99.99,VWS V14.01,2013-07-19 21:52:00,
2013-07-19 17:53:00,83.8,68.4,29.95,East,97,0.0,0.0,60,-99.99,,,-99.99,VWS V14.01,2013-07-19 21:53:00,
2013-07-19 17:54:00,83.7,68.3,29.94,East,97,0.0,0.0,60,-99.99,,,-99.99,VWS V14.01,2013-07-19 21:54:00,
2013-07-19 17:55:00,83.6,68.3,29.94,East,97,0.0,0.0,60,-99.99,,,-99.99,VWS V14.01,2013-07-19 21:55:00,
2013-07-19 17:56:00,83.6,68.3,29.94,East,97,0.0,0.0,60,-99.99,,,-99.99,VWS V14.01,2013-07-19 21:56:00,
2013-07-19 17:57:00,83.7,68.6,29.95,East,97,3.1,5.6,60,-99.99,,,-99.99,VWS V14.01,2013-07-19 21:57:00,
2013-07-19 17:58:00,83.7,68.6,29.95,SE,128,5.4,7.0,60,-99.99,,,-99.99,VWS V14.01,2013-07-19 21:58:00,
2013-07-19 17:59:00,83.7,68.6,29.94,ESE,108,4.8,7.0,60,-99.99,,,-99.99,VWS V14.01,2013-07-19 21:59:00,
2013-07-19 18:00:00,83.7,68.6,29.94,ESE,112,0.0,6.3,60,-99.99,,,-99.99,VWS V14.01,2013-07-19 22:00:00,
2013-07-19 18:01:00,83.7,68.6,29.94,SE,132,3.2,7.5,60,-99.99,,,-99.99,VWS V14.01,2013-07-19 22:01:00,
2013-07-19 18:02:00,83.6,68.6,29.94,SE,132,0.0,3.2,61,-99.99,,,-99.99,VWS V14.01,2013-07-19 22:02:00,
2013-07-19 18:03:00,83.7,68.8,29.95,East,82,0.0,2.9,61,-99.99,,,-99.99,VWS V14.01,2013-07-19 22:03:00,
2013-07-19 18:04:00,83.5,68.7,29.94,East,82,0.0,2.9,61,-99.99,,,-99.99,VWS V14.01,2013-07-19 22:04:00,
2013-07-19 18:05:00,83.6,68.7,29.94,East,82,0.0,0.0,61,-99.99,,,-99.99,VWS V14.01,2013-07-19 22:05:00,
2013-07-19 18:06:00,83.5,68.7,29.94,East,82,0.0,0.0,61,-99.99,,,-99.99,VWS V14.01,2013-07-19 22:06:00,
2013-07-19 18:07:00,83.5,68.8,29.94,East,82,0.0,0.0,61,-99.99,,,-99.99,VWS V14.01,2013-07-19 22:07:00,
2013-07-19 18:08:00,83.3,68.7,29.95,ESE,108,3.5,5.7,61,-99.99,,,-99.99,VWS V14.01,2013-07-19 22:08:00,
2013-07-19 18:09:00,83.4,68.7,29.94,ESE,108,0.0,5.7,61,-99.99,,,-99.99,VWS V14.01,2013-07-19 22:09:00,
2013-07-19 18:10:00,83.3,68.7,29.94,ESE,108,0.0,0.0,61,-99.99,,,-99.99,VWS V14.01,2013-07-19 22:10:00,
2013-07-19 18:11:00,83.3,68.7,29.95,ESE,108,0.0,0.0,62,-99.99,,,-99.99,VWS V14.01,2013-07-19 22:11:00,
2013-07-19 18:12:00,83.2,68.7,29.95,ESE,108,2.1,2.1,62,-99.99,,,-99.99,VWS V14.01,2013-07-19 22:12:00,
2013-07-19 18:13:00,83.1,68.8,29.95,ESE,108,0.0,0.0,62,-99.99,,,-99.99,VWS V14.01,2013-07-19 22:13:00,
2013-07-19 18:14:00,83.2,68.9,29.95,ESE,115,0.0,3.4,62,-99.99,,,-99.99,VWS V14.01,2013-07-19 22:14:00,
2013-07-19 18:15:00,83.0,68.8,29.95,ESE,115,0.0,0.0,62,-99.99,,,-99.99,VWS V14.01,2013-07-19 22:15:00,
2013-07-19 18:16:00,83.0,68.9,29.94,East,100,5.5,5.6,62,-99.99,,,-99.99,VWS V14.01,2013-07-19 22:16:00,
2013-07-19 18:17:00,83.0,69.2,29.94,East,97,3.4,5.5,63,-99.99,,,-99.99,VWS V14.01,2013-07-19 22:17:00,
2013-07-19 18:18:00,83.0,69.3,29.95,ESE,115,0.0,0.0,63,-99.99,,,-99.99,VWS V14.01,2013-07-19 22:18:00,
2013-07-19 18:19:00,82.9,69.2,29.94,SE,129,4.3,4.8,63,-99.99,,,-99.99,VWS V14.01,2013-07-19 22:19:00,
2013-07-19 18:20:00,83.0,69.3,29.94,SE,129,0.0,4.5,64,-99.99,,,-99.99,VWS V14.01,2013-07-19 22:20:00,
2013-07-19 18:21:00,82.9,69.2,29.94,SE,129,0.0,0.0,64,-99.99,,,-99.99,VWS V14.01,2013-07-19 22:21:00,
2013-07-19 18:22:00,82.9,69.4,29.94,SE,129,0.0,0.0,64,-99.99,,,-99.99,VWS V14.01,2013-07-19 22:22:00,
2013-07-19 18:23:00,82.8,69.4,29.95,SE,129,0.0,0.0,64,-99.99,,,-99.99,VWS V14.01,2013-07-19 22:23:00,
2013-07-19 18:24:00,82.8,69.4,29.94,SE,129,0.0,0.0,64,-99.99,,,-99.99,VWS V14.01,2013-07-19 22:24:00,
2013-07-19 18:25:00,82.8,69.4,29.94,SE,129,0.0,0.0,64,-99.99,,,-99.99,VWS V14.01,2013-07-19 22:25:00,
2013-07-19 18:26:00,82.9,69.5,29.94,SE,129,0.0,0.0,64,-99.99,,,-99.99,VWS V14.01,2013-07-19 22:26:00,
2013-07-19 18:27:00,82.9,69.5,29.95,SE,129,0.0,0.0,64,-99.99,,,-99.99,VWS V14.01,2013-07-19 22:27:00,
2013-07-19 18:28:00,82.8,69.4,29.95,SE,129,0.0,0.0,64,-99.99,,,-99.99,VWS V14.01,2013-07-19 22:28:00,
2013-07-19 18:29:00,82.9,69.5,29.94,SE,129,0.0,0.0,64,-99.99,,,-99.99,VWS V14.01,2013-07-19 22:29:00,
2013-07-19 18:30:00,82.8,69.5,29.94,SE,129,0.0,0.0,64,-99.99,,,-99.99,VWS V14.01,2013-07-19 22:30:00,
2013-07-19 18:31:00,82.9,69.6,29.94,SE,129,0.0,0.0,64,-99.99,,,-99.99,VWS V14.01,2013-07-19 22:31:00,
2013-07-19 18:32:00,82.8,69.7,29.94,SE,129,0.0,0.0,65,-99.99,,,-99.99,VWS V14.01,2013-07-19 22:32:00,
2013-07-19 18:33:00,82.8,69.7,29.95,SE,129,0.0,0.0,65,-99.99,,,-99.99,VWS V14.01,2013-07-19 22:33:00,
2013-07-19 18:34:00,82.8,69.8,29.94,SE,129,0.0,0.0,65,-99.99,,,-99.99,VWS V14.01,2013-07-19 22:34:00,
2013-07-19 18:35:00,82.7,69.8,29.95,SE,129,0.0,0.0,65,-99.99,,,-99.99,VWS V14.01,2013-07-19 22:35:00,
2013-07-19 18:36:00,82.7,69.8,29.95,SE,129,0.0,0.0,65,-99.99,,,-99.99,VWS V14.01,2013-07-19 22:36:00,
2013-07-19 18:37:00,82.8,70.1,29.95,SE,129,0.0,0.0,66,-99.99,,,-99.99,VWS V14.01,2013-07-19 22:37:00,
2013-07-19 18:38:00,82.6,70.1,29.95,SE,132,3.2,5.5,66,-99.99,,,-99.99,VWS V14.01,2013-07-19 22:38:00,
2013-07-19 18:39:00,82.7,70.2,29.95,ESE,104,0.0,5.5,66,-99.99,,,-99.99,VWS V14.01,2013-07-19 22:39:00,
2013-07-19 18:40:00,82.6,70.1,29.95,ESE,104,0.0,0.0,66,-99.99,,,-99.99,VWS V14.01,2013-07-19 22:40:00,
2013-07-19 18:41:00,82.6,70.1,29.95,ESE,104,0.0,0.0,66,-99.99,,,-99.99,VWS V14.01,2013-07-19 22:41:00,
2013-07-19 18:42:00,82.6,70.1,29.95,ESE,104,0.0,0.0,66,-99.99,,,-99.99,VWS V14.01,2013-07-19 22:42:00,
2013-07-19 18:43:00,82.7,70.3,29.95,ESE,104,0.0,0.0,66,-99.99,,,-99.99,VWS V14.01,2013-07-19 22:43:00,
2013-07-19 18:44:00,82.7,70.4,29.95,ESE,104,0.0,0.0,66,-99.99,,,-99.99,VWS V14.01,2013-07-19 22:44:00,
2013-07-19 18:45:00,82.7,70.4,29.95,ESE,104,0.0,0.0,66,-99.99,,,-99.99,VWS V14.01,2013-07-19 22:45:00,
2013-07-19 18:46:00,82.7,70.5,29.95,ESE,104,0.0,0.0,67,-99.99,,,-99.99,VWS V14.01,2013-07-19 22:46:00,
2013-07-19 18:47:00,82.8,70.6,29.96,ESE,104,0.0,0.0,67,-99.99,,,-99.99,VWS V14.01,2013-07-19 22:47:00,
2013-07-19 18:48:00,82.8,70.6,29.96,SSE,150,6.3,7.0,67,-99.99,,,-99.99,VWS V14.01,2013-07-19 22:48:00,
2013-07-19 18:49:00,82.8,70.6,29.96,SE,136,3.4,7.0,67,-99.99,,,-99.99,VWS V14.01,2013-07-19 22:49:00,
2013-07-19 18:50:00,82.9,70.7,29.96,SE,136,0.0,3.4,67,-99.99,,,-99.99,VWS V14.01,2013-07-19 22:50:00,
2013-07-19 18:51:00,82.9,70.7,29.96,SE,136,0.0,0.0,67,-99.99,,,-99.99,VWS V14.01,2013-07-19 22:51:00,
2013-07-19 18:52:00,83.0,70.9,29.96,SE,136,0.0,0.0,67,-99.99,,,-99.99,VWS V14.01,2013-07-19 22:52:00,
2013-07-19 18:53:00,83.0,70.8,29.96,SE,136,0.0,0.0,67,-99.99,,,-99.99,VWS V14.01,2013-07-19 22:53:00,
2013-07-19 18:54:00,83.0,70.8,29.96,SE,136,0.0,0.0,67,-99.99,,,-99.99,VWS V14.01,2013-07-19 22:54:00,
2013-07-19 18:55:00,83.0,70.8,29.96,SE,136,0.0,0.0,67,-99.99,,,-99.99,VWS V14.01,2013-07-19 22:55:00,
2013-07-19 18:56:00,83.0,70.8,29.96,SE,136,0.0,0.0,67,-99.99,,,-99.99,VWS V14.01,2013-07-19 22:56:00,
2013-07-19 18:57:00,83.0,70.8,29.97,SE,136,0.0,0.0,67,-99.99,,,-99.99,VWS V14.01,2013-07-19 22:57:00,
2013-07-19 18:58:00,83.0,70.9,29.96,SE,136,0.0,0.0,67,-99.99,,,-99.99,VWS V14.01,2013-07-19 22:58:00,
2013-07-19 18:59:00,83.0,71.0,29.97,SE,136,0.0,0.0,67,-99.99,,,-99.99,VWS V14.01,2013-07-19 22:59:00,
2013-07-19 19:00:00,83.1,71.2,29.97,SE,136,0.0,0.0,67,-99.99,,,-99.99,VWS V14.01,2013-07-19 23:00:00,
2013-07-19 19:01:00,83.1,71.1,29.96,SE,136,0.0,0.0,67,-99.99,,,-99.99,VWS V14.01,2013-07-19 23:01:00,
2013-07-19 19:02:00,83.1,71.2,29.96,SE,136,0.0,0.0,67,-99.99,,,-99.99,VWS V14.01,2013-07-19 23:02:00,
2013-07-19 19:03:00,83.0,71.1,29.96,ENE,66,0.0,0.0,67,-99.99,,,-99.99,VWS V14.01,2013-07-19 23:03:00,
2013-07-19 19:04:00,83.0,71.1,29.96,ENE,66,0.0,0.0,68,-99.99,,,-99.99,VWS V14.01,2013-07-19 23:04:00,
2013-07-19 19:05:00,83.0,71.1,29.96,ENE,66,0.0,0.0,68,-99.99,,,-99.99,VWS V14.01,2013-07-19 23:05:00,
2013-07-19 19:06:00,83.1,71.4,29.96,ENE,66,0.0,0.0,68,-99.99,,,-99.99,VWS V14.01,2013-07-19 23:06:00,
2013-07-19 19:07:00,83.0,71.4,29.96,ENE,66,0.0,0.0,68,-99.99,,,-99.99,VWS V14.01,2013-07-19 23:07:00,
2013-07-19 19:08:00,82.9,71.3,29.96,ENE,66,0.0,0.0,68,-99.99,,,-99.99,VWS V14.01,2013-07-19 23:08:00,
2013-07-19 19:09:00,83.0,71.4,29.96,ENE,66,0.0,0.0,68,-99.99,,,-99.99,VWS V14.01,2013-07-19 23:09:00,
2013-07-19 19:10:00,83.0,71.4,29.96,ENE,66,0.0,0.0,68,-99.99,,,-99.99,VWS V14.01,2013-07-19 23:10:00,
2013-07-19 19:11:00,83.0,71.5,29.96,ENE,66,0.0,0.0,68,-99.99,,,-99.99,VWS V14.01,2013-07-19 23:11:00,
2013-07-19 19:12:00,83.0,71.4,29.96,ENE,66,0.0,0.0,68,-99.99,,,-99.99,VWS V14.01,2013-07-19 23:12:00,
2013-07-19 19:13:00,83.0,71.4,29.96,ENE,66,0.0,3.5,68,-99.99,,,-99.99,VWS V14.01,2013-07-19 23:13:00,
2013-07-19 19:14:00,83.0,71.3,29.96,ENE,66,0.0,3.5,68,-99.99,,,-99.99,VWS V14.01,2013-07-19 23:14:00,
2013-07-19 19:15:00,82.9,70.9,29.96,WNW,294,5.7,8.8,67,-99.99,,,-99.99,VWS V14.01,2013-07-19 23:15:00,
2013-07-19 19:16:00,82.9,70.9,29.96,South,169,3.3,7.9,67,-99.99,,,-99.99,VWS V14.01,2013-07-19 23:16:00,
2013-07-19 19:17:00,82.7,70.8,29.96,South,169,0.0,3.3,67,-99.99,,,-99.99,VWS V14.01,2013-07-19 23:17:00,
2013-07-19 19:18:00,82.7,70.7,29.96,WNW,290,0.0,0.0,67,-99.99,,,-99.99,VWS V14.01,2013-07-19 23:18:00,
2013-07-19 19:19:00,82.6,70.6,29.96,WNW,290,3.2,3.2,67,-99.99,,,-99.99,VWS V14.01,2013-07-19 23:19:00,
2013-07-19 19:20:00,82.6,70.6,29.96,SW,235,0.0,3.2,67,-99.99,,,-99.99,VWS V14.01,2013-07-19 23:20:00,
2013-07-19 19:21:00,82.5,70.5,29.96,North,354,12.4,12.4,67,-99.99,,,-99.99,VWS V14.01,2013-07-19 23:21:00,
2013-07-19 19:22:00,82.4,70.3,29.96,WSW,248,0.0,12.4,67,-99.99,,,-99.99,VWS V14.01,2013-07-19 23:22:00,
2013-07-19 19:23:00,82.4,70.5,29.96,WSW,248,0.0,0.0,67,-99.99,,,-99.99,VWS V14.01,2013-07-19 23:23:00,
2013-07-19 19:24:00,82.3,70.4,29.96,NNW,336,6.2,7.8,67,-99.99,,,-99.99,VWS V14.01,2013-07-19 23:24:00,
2013-07-19 19:25:00,82.2,70.3,29.96,WNW,301,5.2,7.5,67,-99.99,,,-99.99,VWS V14.01,2013-07-19 23:25:00,
2013-07-19 19:26:00,82.1,70.3,29.96,SW,221,0.0,5.7,68,-99.99,,,-99.99,VWS V14.01,2013-07-19 23:26:00,
2013-07-19 19:27:00,82.1,70.4,29.96,NNW,338,7.3,7.5,68,-99.99,,,-99.99,VWS V14.01,2013-07-19 23:27:00,
2013-07-19 19:28:00,82.0,70.4,29.97,NW,321,7.5,7.5,68,-99.99,,,-99.99,VWS V14.01,2013-07-19 23:28:00,
2013-07-19 19:29:00,81.9,70.4,29.97,NNW,342,9.4,9.4,68,-99.99,,,-99.99,VWS V14.01,2013-07-19 23:29:00,
2013-07-19 19:30:00,81.6,70.3,29.97,SW,224,0.0,12.2,69,-99.99,,,-99.99,VWS V14.01,2013-07-19 23:30:00,
2013-07-19 19:31:00,81.4,70.2,29.97,North,359,0.0,3.3,69,-99.99,,,-99.99,VWS V14.01,2013-07-19 23:31:00,
2013-07-19 19:32:00,81.4,70.3,29.96,North,359,0.0,1.1,69,-99.99,,,-99.99,VWS V14.01,2013-07-19 23:32:00,
2013-07-19 19:33:00,81.2,70.2,29.96,North,359,0.0,0.0,69,-99.99,,,-99.99,VWS V14.01,2013-07-19 23:33:00,
2013-07-19 19:34:00,81.2,70.3,29.96,NNE,15,0.0,3.5,70,-99.99,,,-99.99,VWS V14.01,2013-07-19 23:34:00,
2013-07-19 19:35:00,81.2,70.4,29.96,NNE,15,0.0,0.0,70,-99.99,,,-99.99,VWS V14.01,2013-07-19 23:35:00,
2013-07-19 19:36:00,81.2,70.4,29.96,NNE,15,0.0,0.0,70,-99.99,,,-99.99,VWS V14.01,2013-07-19 23:36:00,
2013-07-19 19:37:00,81.1,70.3,29.96,NNE,15,0.0,0.0,70,-99.99,,,-99.99,VWS V14.01,2013-07-19 23:37:00,
2013-07-19 19:38:00,81.0,70.3,29.96,NNE,15,0.0,0.0,70,-99.99,,,-99.99,VWS V14.01,2013-07-19 23:38:00,
2013-07-19 19:39:00,81.0,70.3,29.96,NNE,15,0.0,0.0,70,-99.99,,,-99.99,VWS V14.01,2013-07-19 23:39:00,
2013-07-19 19:40:00,80.9,70.4,29.96,North,349,0.0,3.0,70,-99.99,,,-99.99,VWS V14.01,2013-07-19 23:40:00,
2013-07-19 19:41:00,81.0,70.5,29.96,WNW,288,0.0,3.4,70,-99.99,,,-99.99,VWS V14.01,2013-07-19 23:41:00,
2013-07-19 19:42:00,81.0,70.5,29.96,WNW,288,0.0,0.0,70,-99.99,,,-99.99,VWS V14.01,2013-07-19 23:42:00,
2013-07-19 19:43:00,80.8,70.3,29.96,WNW,288,2.9,3.2,70,-99.99,,,-99.99,VWS V14.01,2013-07-19 23:43:00,
2013-07-19 19:44:00,80.7,70.3,29.96,NW,319,5.6,5.6,71,-99.99,,,-99.99,VWS V14.01,2013-07-19 23:44:00,
2013-07-19 19:45:00,80.6,70.2,29.96,NW,315,0.0,5.6,71,-99.99,,,-99.99,VWS V14.01,2013-07-19 23:45:00,
2013-07-19 19:46:00,80.7,70.3,29.96,NW,315,0.0,0.0,71,-99.99,,,-99.99,VWS V14.01,2013-07-19 23:46:00,
2013-07-19 19:47:00,80.7,70.3,29.96,NW,315,0.0,0.0,71,-99.99,,,-99.99,VWS V14.01,2013-07-19 23:47:00,
2013-07-19 19:48:00,80.6,70.2,29.96,NW,315,0.0,0.0,71,-99.99,,,-99.99,VWS V14.01,2013-07-19 23:48:00,
2013-07-19 19:49:00,80.6,70.3,29.96,NW,315,0.0,0.0,71,-99.99,,,-99.99,VWS V14.01,2013-07-19 23:49:00,
2013-07-19 19:50:00,80.7,70.5,29.96,NW,315,0.0,0.0,71,-99.99,,,-99.99,VWS V14.01,2013-07-19 23:50:00,
2013-07-19 19:51:00,80.6,70.4,29.96,NW,315,0.0,0.0,71,-99.99,,,-99.99,VWS V14.01,2013-07-19 23:51:00,
2013-07-19 19:52:00,80.5,70.2,29.96,NW,315,0.0,0.0,71,-99.99,,,-99.99,VWS V14.01,2013-07-19 23:52:00,
2013-07-19 19:53:00,80.4,70.3,29.96,NW,315,0.0,0.0,71,-99.99,,,-99.99,VWS V14.01,2013-07-19 23:53:00,
2013-07-19 19:54:00,80.5,70.5,29.95,SE,141,4.2,4.9,72,-99.99,,,-99.99,VWS V14.01,2013-07-19 23:54:00,
2013-07-19 19:55:00,80.3,70.2,29.95,SE,142,0.0,4.2,71,-99.99,,,-99.99,VWS V14.01,2013-07-19 23:55:00,
2013-07-19 19:56:00,80.3,70.3,29.95,ESE,120,5.9,5.9,72,-99.99,,,-99.99,VWS V14.01,2013-07-19 23:56:00,
2013-07-19 19:57:00,80.3,70.2,29.96,ENE,73,0.0,6.1,72,-99.99,,,-99.99,VWS V14.01,2013-07-19 23:57:00,
2013-07-19 19:58:00,80.2,70.0,29.95,ENE,73,0.0,0.0,71,-99.99,,,-99.99,VWS V14.01,2013-07-19 23:58:00,
2013-07-19 19:59:00,80.1,69.9,29.95,ENE,73,0.0,0.0,71,-99.99,,,-99.99,VWS V14.01,2013-07-19 23:59:00,
2013-07-19 20:00:00,80.2,69.9,29.95,ENE,73,0.0,0.0,71,-99.99,,,-99.99,VWS V14.01,2013-07-20 00:00:00,
2013-07-19 20:01:00,80.2,70.0,29.96,ENE,73,0.0,0.0,71,-99.99,,,-99.99,VWS V14.01,2013-07-20 00:01:00,
2013-07-19 20:02:00,80.0,69.7,29.95,ENE,73,0.0,0.0,71,-99.99,,,-99.99,VWS V14.01,2013-07-20 00:02:00,
2013-07-19 20:03:00,80.0,69.7,29.95,ENE,73,0.0,0.0,71,-99.99,,,-99.99,VWS V14.01,2013-07-20 00:03:00,
2013-07-19 20:04:00,80.0,69.6,29.95,ENE,73,0.0,0.0,71,-99.99,,,-99.99,VWS V14.01,2013-07-20 00:04:00,
2013-07-19 20:05:00,80.0,69.7,29.95,ESE,112,5.7,5.7,71,-99.99,,,-99.99,VWS V14.01,2013-07-20 00:05:00,
2013-07-19 20:06:00,80.0,69.6,29.95,SE,129,0.0,5.7,70,-99.99,,,-99.99,VWS V14.01,2013-07-20 00:06:00,
2013-07-19 20:07:00,79.9,69.3,29.95,SE,129,0.0,0.0,70,-99.99,,,-99.99,VWS V14.01,2013-07-20 00:07:00,
2013-07-19 20:08:00,80.0,69.4,29.95,SE,129,0.0,0.0,70,-99.99,,,-99.99,VWS V14.01,2013-07-20 00:08:00,
2013-07-19 20:09:00,80.0,69.4,29.95,SE,129,0.0,0.0,70,-99.99,,,-99.99,VWS V14.01,2013-07-20 00:09:00,
2013-07-19 20:10:00,80.1,69.5,29.94,SE,129,0.0,0.0,70,-99.99,,,-99.99,VWS V14.01,2013-07-20 00:10:00,
2013-07-19 20:11:00,80.0,69.3,29.94,SE,129,0.0,0.0,70,-99.99,,,-99.99,VWS V14.01,2013-07-20 00:11:00,
2013-07-19 20:12:00,80.0,69.3,29.94,SE,129,0.0,0.0,70,-99.99,,,-99.99,VWS V14.01,2013-07-20 00:12:00,
2013-07-19 20:13:00,80.0,69.2,29.95,SE,129,0.0,0.0,70,-99.99,,,-99.99,VWS V14.01,2013-07-20 00:13:00,
2013-07-19 20:14:00,79.9,69.0,29.95,SE,129,0.0,0.0,70,-99.99,,,-99.99,VWS V14.01,2013-07-20 00:14:00,
2013-07-19 20:15:00,79.9,69.2,29.94,ESE,122,0.0,2.2,70,-99.99,,,-99.99,VWS V14.01,2013-07-20 00:15:00,
2013-07-19 20:16:00,79.9,69.0,29.95,ESE,122,0.0,0.0,69,-99.99,,,-99.99,VWS V14.01,2013-07-20 00:16:00,
2013-07-19 20:17:00,79.9,69.0,29.95,ESE,122,0.0,0.0,70,-99.99,,,-99.99,VWS V14.01,2013-07-20 00:17:00,
2013-07-19 20:18:00,79.9,69.1,29.95,ESE,122,0.0,0.0,70,-99.99,,,-99.99,VWS V14.01,2013-07-20 00:18:00,
2013-07-19 20:19:00,79.8,69.0,29.94,ESE,122,0.0,0.0,70,-99.99,,,-99.99,VWS V14.01,2013-07-20 00:19:00,
2013-07-19 20:20:00,79.8,69.1,29.94,ESE,122,0.0,0.0,70,-99.99,,,-99.99,VWS V14.01,2013-07-20 00:20:00,
2013-07-19 20:21:00,79.9,69.0,29.94,ESE,122,0.0,0.0,69,-99.99,,,-99.99,VWS V14.01,2013-07-20 00:21:00,
2013-07-19 20:22:00,79.7,68.7,29.94,ESE,122,0.0,0.0,69,-99.99,,,-99.99,VWS V14.01,2013-07-20 00:22:00,
2013-07-19 20:23:00,79.5,68.6,29.94,ESE,122,0.0,0.0,69,-99.99,,,-99.99,VWS V14.01,2013-07-20 00:23:00,
2013-07-19 20:24:00,79.6,68.8,29.94,ESE,122,0.0,0.0,70,-99.99,,,-99.99,VWS V14.01,2013-07-20 00:24:00,
2013-07-19 20:25:00,79.5,68.8,29.94,ESE,122,0.0,0.0,70,-99.99,,,-99.99,VWS V14.01,2013-07-20 00:25:00,
2013-07-19 20:26:00,79.4,68.7,29.94,ESE,122,0.0,0.0,70,-99.99,,,-99.99,VWS V14.01,2013-07-20 00:26:00,
2013-07-19 20:27:00,79.4,68.6,29.94,ESE,122,0.0,0.0,70,-99.99,,,-99.99,VWS V14.01,2013-07-20 00:27:00,
2013-07-19 20:28:00,79.2,68.4,29.94,ESE,122,0.0,0.0,70,-99.99,,,-99.99,VWS V14.01,2013-07-20 00:28:00,
2013-07-19 20:29:00,79.2,68.5,29.94,ESE,122,0.0,0.0,70,-99.99,,,-99.99,VWS V14.01,2013-07-20 00:29:00,
2013-07-19 20:30:00,79.0,68.3,29.94,ESE,122,0.0,0.0,70,-99.99,,,-99.99,VWS V14.01,2013-07-20 00:30:00,
2013-07-19 20:31:00,79.2,68.6,29.94,ESE,122,0.0,0.0,70,-99.99,,,-99.99,VWS V14.01,2013-07-20 00:31:00,
2013-07-19 20:32:00,79.0,68.6,29.94,ESE,122,0.0,0.0,70,-99.99,,,-99.99,VWS V14.01,2013-07-20 00:32:00,
2013-07-19 20:33:00,79.1,68.7,29.94,ESE,122,0.0,0.0,70,-99.99,,,-99.99,VWS V14.01,2013-07-20 00:33:00,
2013-07-19 20:34:00,79.0,68.6,29.94,ESE,122,0.0,0.0,70,-99.99,,,-99.99,VWS V14.01,2013-07-20 00:34:00,
2013-07-19 20:35:00,78.9,68.3,29.94,ESE,122,0.0,0.0,70,-99.99,,,-99.99,VWS V14.01,2013-07-20 00:35:00,
2013-07-19 20:36:00,78.8,68.2,29.94,ESE,122,0.0,0.0,70,-99.99,,,-99.99,VWS V14.01,2013-07-20 00:36:00,
2013-07-19 20:37:00,79.0,68.4,29.94,NNW,343,0.0,6.8,70,-99.99,,,-99.99,VWS V14.01,2013-07-20 00:37:00,
2013-07-19 20:38:00,78.9,68.3,29.94,NNW,343,0.0,0.0,70,-99.99,,,-99.99,VWS V14.01,2013-07-20 00:38:00,
2013-07-19 20:39:00,78.9,68.4,29.94,NNW,343,0.0,0.0,70,-99.99,,,-99.99,VWS V14.01,2013-07-20 00:39:00,
2013-07-19 20:40:00,79.0,68.4,29.94,NNW,343,0.0,0.0,70,-99.99,,,-99.99,VWS V14.01,2013-07-20 00:40:00,
2013-07-19 20:41:00,79.0,68.4,29.94,NNW,343,0.0,0.0,70,-99.99,,,-99.99,VWS V14.01,2013-07-20 00:41:00,
2013-07-19 20:42:00,78.9,68.4,29.94,NNW,343,0.0,0.0,70,-99.99,,,-99.99,VWS V14.01,2013-07-20 00:42:00,
2013-07-19 20:43:00,78.8,68.3,29.94,NNW,343,0.0,0.0,70,-99.99,,,-99.99,VWS V14.01,2013-07-20 00:43:00,
2013-07-19 20:44:00,78.8,68.4,29.94,NNW,343,0.0,0.0,70,-99.99,,,-99.99,VWS V14.01,2013-07-20 00:44:00,
2013-07-19 20:45:00,78.9,68.5,29.94,NNW,343,0.0,0.0,70,-99.99,,,-99.99,VWS V14.01,2013-07-20 00:45:00,
2013-07-19 20:46:00,78.8,68.4,29.94,NNW,343,0.0,0.0,70,-99.99,,,-99.99,VWS V14.01,2013-07-20 00:46:00,
2013-07-19 20:47:00,78.8,68.4,29.94,NNW,343,0.0,0.0,70,-99.99,,,-99.99,VWS V14.01,2013-07-20 00:47:00,
2013-07-19 20:48:00,78.8,68.4,29.94,NNW,343,0.0,0.0,70,-99.99,,,-99.99,VWS V14.01,2013-07-20 00:48:00,
2013-07-19 20:49:00,78.8,68.4,29.94,NNW,343,0.0,0.0,70,-99.99,,,-99.99,VWS V14.01,2013-07-20 00:49:00,
2013-07-19 20:50:00,78.8,68.4,29.94,NNW,343,0.0,0.0,70,-99.99,,,-99.99,VWS V14.01,2013-07-20 00:50:00,
2013-07-19 20:51:00,78.8,68.4,29.94,NNW,343,0.0,0.0,70,-99.99,,,-99.99,VWS V14.01,2013-07-20 00:51:00,
2013-07-19 20:52:00,78.8,68.4,29.94,NNW,343,0.0,0.0,70,-99.99,,,-99.99,VWS V14.01,2013-07-20 00:52:00,
2013-07-19 20:53:00,78.8,68.4,29.95,NNW,343,0.0,0.0,71,-99.99,,,-99.99,VWS V14.01,2013-07-20 00:53:00,
2013-07-19 20:54:00,78.8,68.5,29.94,NNW,343,0.0,0.0,71,-99.99,,,-99.99,VWS V14.01,2013-07-20 00:54:00,
2013-07-19 20:55:00,78.8,68.5,29.94,NNW,343,0.0,0.0,71,-99.99,,,-99.99,VWS V14.01,2013-07-20 00:55:00,
2013-07-19 20:56:00,78.7,68.5,29.94,NNW,343,0.0,0.0,71,-99.99,,,-99.99,VWS V14.01,2013-07-20 00:56:00,
2013-07-19 20:57:00,78.8,68.6,29.94,NNW,343,0.0,0.0,71,-99.99,,,-99.99,VWS V14.01,2013-07-20 00:57:00,
2013-07-19 20:58:00,78.9,68.7,29.94,NNW,343,0.0,0.0,71,-99.99,,,-99.99,VWS V14.01,2013-07-20 00:58:00,
2013-07-19 20:59:00,78.9,68.7,29.94,NNW,343,0.0,0.0,71,-99.99,,,-99.99,VWS V14.01,2013-07-20 00:59:00,
2013-07-19 21:00:00,78.9,68.8,29.94,NNW,343,0.0,0.0,71,-99.99,,,-99.99,VWS V14.01,2013-07-20 01:00:00,
2013-07-19 21:01:00,78.9,68.8,29.94,NNW,343,0.0,0.0,71,-99.99,,,-99.99,VWS V14.01,2013-07-20 01:01:00,
2013-07-19 21:02:00,78.8,68.7,29.94,NNW,343,0.0,0.0,71,-99.99,,,-99.99,VWS V14.01,2013-07-20 01:02:00,
2013-07-19 21:03:00,78.9,68.8,29.94,NNW,343,0.0,0.0,71,-99.99,,,-99.99,VWS V14.01,2013-07-20 01:03:00,
2013-07-19 21:04:00,78.9,68.8,29.93,NNW,343,0.0,0.0,71,-99.99,,,-99.99,VWS V14.01,2013-07-20 01:04:00,
2013-07-19 21:05:00,78.9,68.8,29.93,NNW,343,0.0,0.0,71,-99.99,,,-99.99,VWS V14.01,2013-07-20 01:05:00,
2013-07-19 21:06:00,78.9,68.7,29.93,NNW,343,0.0,0.0,71,-99.99,,,-99.99,VWS V14.01,2013-07-20 01:06:00,
2013-07-19 21:07:00,78.9,68.7,29.93,NNW,343,0.0,0.0,71,-99.99,,,-99.99,VWS V14.01,2013-07-20 01:07:00,
2013-07-19 21:08:00,78.9,68.7,29.93,NNW,343,0.0,0.0,71,-99.99,,,-99.99,VWS V14.01,2013-07-20 01:08:00,
2013-07-19 21:09:00,78.9,68.7,29.93,NNW,343,0.0,0.0,71,-99.99,,,-99.99,VWS V14.01,2013-07-20 01:09:00,
2013-07-19 21:10:00,78.8,68.6,29.93,NNW,343,0.0,0.0,71,-99.99,,,-99.99,VWS V14.01,2013-07-20 01:10:00,
2013-07-19 21:11:00,78.9,68.7,29.93,NNW,343,0.0,0.0,71,-99.99,,,-99.99,VWS V14.01,2013-07-20 01:11:00,
2013-07-19 21:12:00,78.8,68.5,29.93,NNW,343,0.0,0.0,71,-99.99,,,-99.99,VWS V14.01,2013-07-20 01:12:00,
2013-07-19 21:13:00,78.9,68.5,29.93,NNW,343,0.0,0.0,70,-99.99,,,-99.99,VWS V14.01,2013-07-20 01:13:00,
2013-07-19 21:14:00,78.8,68.4,29.93,NNW,343,0.0,0.0,70,-99.99,,,-99.99,VWS V14.01,2013-07-20 01:14:00,
2013-07-19 21:15:00,78.7,68.3,29.93,NNW,343,0.0,0.0,71,-99.99,,,-99.99,VWS V14.01,2013-07-20 01:15:00,
2013-07-19 21:16:00,78.8,68.6,29.92,NNW,343,0.0,0.0,71,-99.99,,,-99.99,VWS V14.01,2013-07-20 01:16:00,
2013-07-19 21:17:00,78.7,68.6,29.92,NNW,343,0.0,0.0,71,-99.99,,,-99.99,VWS V14.01,2013-07-20 01:17:00,
2013-07-19 21:18:00,78.6,68.6,29.93,NNW,343,0.0,0.0,71,-99.99,,,-99.99,VWS V14.01,2013-07-20 01:18:00,
2013-07-19 21:19:00,78.5,68.5,29.92,NNW,343,0.0,0.0,72,-99.99,,,-99.99,VWS V14.01,2013-07-20 01:19:00,
2013-07-19 21:20:00,78.5,68.6,29.93,NNW,343,0.0,0.0,72,-99.99,,,-99.99,VWS V14.01,2013-07-20 01:20:00,
2013-07-19 21:21:00,78.4,68.6,29.93,NNW,343,0.0,0.0,72,-99.99,,,-99.99,VWS V14.01,2013-07-20 01:21:00,
2013-07-19 21:22:00,78.5,68.8,29.93,NNW,343,0.0,0.0,72,-99.99,,,-99.99,VWS V14.01,2013-07-20 01:22:00,
2013-07-19 21:23:00,78.5,68.7,29.93,NNW,343,0.0,0.0,72,-99.99,,,-99.99,VWS V14.01,2013-07-20 01:23:00,
2013-07-19 21:24:00,78.3,68.6,29.93,NNW,343,0.0,0.0,72,-99.99,,,-99.99,VWS V14.01,2013-07-20 01:24:00,
2013-07-19 21:25:00,78.3,68.6,29.93,NNW,343,0.0,0.0,72,-99.99,,,-99.99,VWS V14.01,2013-07-20 01:25:00,
2013-07-19 21:26:00,78.3,68.7,29.93,NNW,343,0.0,0.0,72,-99.99,,,-99.99,VWS V14.01,2013-07-20 01:26:00,
2013-07-19 21:27:00,78.3,68.8,29.93,NNW,343,0.0,0.0,73,-99.99,,,-99.99,VWS V14.01,2013-07-20 01:27:00,
2013-07-19 21:28:00,78.3,68.9,29.93,NNW,343,0.0,0.0,73,-99.99,,,-99.99,VWS V14.01,2013-07-20 01:28:00,
2013-07-19 21:29:00,78.3,69.0,29.93,NNW,343,0.0,0.0,73,-99.99,,,-99.99,VWS V14.01,2013-07-20 01:29:00,
2013-07-19 21:30:00,78.2,69.0,29.93,NNW,343,0.0,0.0,73,-99.99,,,-99.99,VWS V14.01,2013-07-20 01:30:00,
2013-07-19 21:31:00,78.3,69.1,29.93,NNW,343,0.0,0.0,73,-99.99,,,-99.99,VWS V14.01,2013-07-20 01:31:00,
2013-07-19 21:32:00,78.3,69.0,29.93,NNW,343,0.0,0.0,73,-99.99,,,-99.99,VWS V14.01,2013-07-20 01:32:00,
2013-07-19 21:33:00,78.1,68.6,29.93,NNW,343,0.0,0.0,73,-99.99,,,-99.99,VWS V14.01,2013-07-20 01:33:00,
2013-07-19 21:34:00,78.1,68.5,29.93,NNW,343,0.0,0.0,72,-99.99,,,-99.99,VWS V14.01,2013-07-20 01:34:00,
2013-07-19 21:35:00,78.0,68.6,29.93,NNW,343,0.0,0.0,73,-99.99,,,-99.99,VWS V14.01,2013-07-20 01:35:00,
2013-07-19 21:36:00,78.1,68.8,29.93,NNW,343,0.0,0.0,73,-99.99,,,-99.99,VWS V14.01,2013-07-20 01:36:00,
2013-07-19 21:37:00,78.0,68.6,29.93,NNW,343,0.0,0.0,73,-99.99,,,-99.99,VWS V14.01,2013-07-20 01:37:00,
2013-07-19 21:38:00,78.0,68.6,29.93,NNW,343,0.0,0.0,73,-99.99,,,-99.99,VWS V14.01,2013-07-20 01:38:00,
2013-07-19 21:39:00,78.0,68.7,29.93,NNW,343,0.0,0.0,73,-99.99,,,-99.99,VWS V14.01,2013-07-20 01:39:00,
2013-07-19 21:40:00,78.1,68.7,29.93,NNW,343,0.0,0.0,73,-99.99,,,-99.99,VWS V14.01,2013-07-20 01:40:00,
2013-07-19 21:41:00,78.0,68.6,29.93,NNW,343,0.0,0.0,73,-99.99,,,-99.99,VWS V14.01,2013-07-20 01:41:00,
2013-07-19 21:42:00,77.9,68.5,29.92,NNW,343,0.0,0.0,73,-99.99,,,-99.99,VWS V14.01,2013-07-20 01:42:00,
2013-07-19 21:43:00,77.9,68.5,29.92,NNW,343,0.0,0.0,73,-99.99,,,-99.99,VWS V14.01,2013-07-20 01:43:00,
2013-07-19 21:44:00,77.9,68.5,29.92,NNW,343,0.0,0.0,73,-99.99,,,-99.99,VWS V14.01,2013-07-20 01:44:00,
2013-07-19 21:45:00,77.9,68.5,29.92,NNW,343,0.0,0.0,73,-99.99,,,-99.99,VWS V14.01,2013-07-20 01:45:00,
2013-07-19 21:46:00,78.0,68.6,29.92,NNW,343,0.0,0.0,73,-99.99,,,-99.99,VWS V14.01,2013-07-20 01:46:00,
2013-07-19 21:47:00,78.0,68.7,29.92,NNW,343,0.0,0.0,73,-99.99,,,-99.99,VWS V14.01,2013-07-20 01:47:00,
2013-07-19 21:48:00,78.0,68.7,29.92,NNW,343,0.0,0.0,73,-99.99,,,-99.99,VWS V14.01,2013-07-20 01:48:00,
2013-07-19 21:49:00,77.8,68.5,29.92,NNW,343,0.0,0.0,73,-99.99,,,-99.99,VWS V14.01,2013-07-20 01:49:00,
2013-07-19 21:50:00,78.0,68.7,29.92,NNW,343,0.0,0.0,73,-99.99,,,-99.99,VWS V14.01,2013-07-20 01:50:00,
2013-07-19 21:51:00,77.9,68.6,29.92,NNW,343,0.0,0.0,73,-99.99,,,-99.99,VWS V14.01,2013-07-20 01:51:00,
2013-07-19 21:52:00,77.9,68.6,29.92,NNW,343,0.0,0.0,73,-99.99,,,-99.99,VWS V14.01,2013-07-20 01:52:00,
2013-07-19 21:53:00,77.9,68.6,29.92,NNW,343,0.0,0.0,73,-99.99,,,-99.99,VWS V14.01,2013-07-20 01:53:00,
2013-07-19 21:54:00,77.8,68.5,29.92,NNW,343,0.0,0.0,73,-99.99,,,-99.99,VWS V14.01,2013-07-20 01:54:00,
2013-07-19 21:55:00,77.9,68.6,29.92,NNW,343,0.0,0.0,73,-99.99,,,-99.99,VWS V14.01,2013-07-20 01:55:00,
2013-07-19 21:56:00,77.8,68.6,29.92,NNW,343,0.0,0.0,73,-99.99,,,-99.99,VWS V14.01,2013-07-20 01:56:00,
2013-07-19 21:57:00,77.7,68.5,29.92,NNW,343,0.0,0.0,73,-99.99,,,-99.99,VWS V14.01,2013-07-20 01:57:00,
2013-07-19 21:58:00,77.7,68.5,29.92,NNW,343,0.0,0.0,73,-99.99,,,-99.99,VWS V14.01,2013-07-20 01:58:00,
2013-07-19 21:59:00,77.8,68.7,29.93,NNW,343,0.0,0.0,74,-99.99,,,-99.99,VWS V14.01,2013-07-20 01:59:00,
2013-07-19 22:00:00,77.7,68.7,29.93,NNW,343,0.0,0.0,74,-99.99,,,-99.99,VWS V14.01,2013-07-20 02:00:00,
2013-07-19 22:01:00,77.8,68.9,29.93,NNW,343,0.0,0.0,74,-99.99,,,-99.99,VWS V14.01,2013-07-20 02:01:00,
2013-07-19 22:02:00,77.8,68.9,29.93,NNW,343,0.0,0.0,74,-99.99,,,-99.99,VWS V14.01,2013-07-20 02:02:00,
2013-07-19 22:03:00,77.8,68.9,29.93,NNW,343,0.0,0.0,74,-99.99,,,-99.99,VWS V14.01,2013-07-20 02:03:00,
2013-07-19 22:04:00,77.7,68.7,29.93,NNW,343,0.0,0.0,74,-99.99,,,-99.99,VWS V14.01,2013-07-20 02:04:00,